AFL638 UHWW-VTSP
Flight info
| Callsign | AFL638 |
|---|---|
| Flight time | 7h 2m |
| Altitude | 32100 |
| Route | SANAR2G SANAR B451 WQG G341 TGO G212 BUMDU W47 ASAVA W45 NUPTI R343 WUY R474 TEBAK/K0943F340 R474 LAVOS R474 BKK Y8 SAVSA SAVSA1D |
| Aircraft | B77W/H-SDE1E2E3FGHIJ2J3J4J5M1RWXY/LB1D1 |
Departure
| Time | 2026-04-21 11:22 |
|---|---|
| Airport | Vladivostok International Airport (UHWW) |
Arrival
| Time | 2026-04-21 18:24 |
|---|---|
| Airport | Phuket International Airport (VTSP) |
| Time | Latitude | Longitude | Altitude | Speed | Heading |
|---|---|---|---|---|---|
| 2026-04-21 10:56 | 43.39706 | 132.16419 | 75 ft | 0 kts | 151° |
| 2026-04-21 11:15 | 43.39719 | 132.16410 | 75 ft | 4 kts | 145° |
| 2026-04-21 11:15 | 43.39738 | 132.16387 | 64 ft | 4 kts | 128° |
| 2026-04-21 11:16 | 43.39751 | 132.16357 | 64 ft | 4 kts | 106° |
| 2026-04-21 11:16 | 43.39755 | 132.16325 | 66 ft | 4 kts | 82° |
| 2026-04-21 11:16 | 43.39749 | 132.16295 | 64 ft | 1 kts | 61° |
| 2026-04-21 11:16 | 43.39748 | 132.16294 | 64 ft | 7 kts | 61° |
| 2026-04-21 11:18 | 43.39752 | 132.16302 | 64 ft | 7 kts | 61° |
| 2026-04-21 11:18 | 43.39778 | 132.16369 | 64 ft | 8 kts | 62° |
| 2026-04-21 11:19 | 43.39814 | 132.16458 | 66 ft | 19 kts | 61° |
| 2026-04-21 11:19 | 43.39882 | 132.16628 | 64 ft | 20 kts | 61° |
| 2026-04-21 11:19 | 43.39951 | 132.16799 | 64 ft | 20 kts | 61° |
| 2026-04-21 11:19 | 43.40016 | 132.16960 | 66 ft | 16 kts | 61° |
| 2026-04-21 11:20 | 43.40070 | 132.17082 | 66 ft | 11 kts | 40° |
| 2026-04-21 11:20 | 43.40148 | 132.17066 | 61 ft | 17 kts | 333° |
| 2026-04-21 11:20 | 43.40270 | 132.16976 | 64 ft | 20 kts | 332° |
| 2026-04-21 11:20 | 43.40394 | 132.16883 | 63 ft | 20 kts | 332° |
| 2026-04-21 11:21 | 43.40441 | 132.16814 | 64 ft | 7 kts | 246° |
| 2026-04-21 11:21 | 43.40393 | 132.16701 | 62 ft | 34 kts | 241° |
| 2026-04-21 11:21 | 43.40160 | 132.16120 | 70 ft | 103 kts | 241° |
| 2026-04-21 11:21 | 43.39713 | 132.15016 | 64 ft | 160 kts | 241° |
| 2026-04-21 11:22 | 43.39099 | 132.13494 | 107 ft | 198 kts | 242° |
| 2026-04-21 11:22 | 43.38424 | 132.11862 | 595 ft | 199 kts | 243° |
| 2026-04-21 11:22 | 43.37772 | 132.10237 | 1321 ft | 188 kts | 244° |
| 2026-04-21 11:22 | 43.37144 | 132.08673 | 1917 ft | 190 kts | 245° |
| 2026-04-21 11:23 | 43.36471 | 132.06994 | 2115 ft | 211 kts | 245° |
| 2026-04-21 11:23 | 43.35725 | 132.05142 | 2340 ft | 232 kts | 245° |
| 2026-04-21 11:23 | 43.34920 | 132.03160 | 2848 ft | 240 kts | 245° |
| 2026-04-21 11:23 | 43.34250 | 132.01068 | 3482 ft | 240 kts | 255° |
| 2026-04-21 11:24 | 43.33753 | 131.98887 | 4279 ft | 237 kts | 258° |
| 2026-04-21 11:24 | 43.33287 | 131.96730 | 5126 ft | 233 kts | 258° |
| 2026-04-21 11:24 | 43.32827 | 131.94603 | 5921 ft | 232 kts | 258° |
| 2026-04-21 11:24 | 43.32363 | 131.92484 | 6662 ft | 231 kts | 258° |
| 2026-04-21 11:25 | 43.31902 | 131.90402 | 7381 ft | 230 kts | 259° |
| 2026-04-21 11:25 | 43.31433 | 131.88300 | 8109 ft | 229 kts | 259° |
| 2026-04-21 11:25 | 43.30962 | 131.86205 | 8818 ft | 229 kts | 259° |
| 2026-04-21 11:25 | 43.30489 | 131.84117 | 9537 ft | 229 kts | 259° |
| 2026-04-21 11:26 | 43.30014 | 131.82021 | 10078 ft | 235 kts | 259° |
| 2026-04-21 11:26 | 43.29511 | 131.79780 | 10225 ft | 256 kts | 258° |
| 2026-04-21 11:26 | 43.29154 | 131.78194 | 10340 ft | 270 kts | 258° |
| 2026-04-21 11:26 | 43.28573 | 131.75633 | 10507 ft | 292 kts | 258° |
| 2026-04-21 11:27 | 43.27946 | 131.72897 | 10862 ft | 307 kts | 257° |
| 2026-04-21 11:27 | 43.27294 | 131.70072 | 11521 ft | 313 kts | 257° |
| 2026-04-21 11:27 | 43.26630 | 131.67210 | 12354 ft | 317 kts | 257° |
| 2026-04-21 11:27 | 43.25956 | 131.64306 | 13181 ft | 322 kts | 257° |
| 2026-04-21 11:28 | 43.25277 | 131.61378 | 14032 ft | 323 kts | 257° |
| 2026-04-21 11:28 | 43.24596 | 131.58437 | 14853 ft | 325 kts | 257° |
| 2026-04-21 11:28 | 43.23909 | 131.55463 | 15631 ft | 329 kts | 258° |
| 2026-04-21 11:28 | 43.23209 | 131.52440 | 16325 ft | 334 kts | 257° |
| 2026-04-21 11:29 | 43.22508 | 131.49425 | 17074 ft | 338 kts | 257° |
| 2026-04-21 11:29 | 43.21814 | 131.46298 | 17799 ft | 338 kts | 261° |
| 2026-04-21 11:29 | 43.21592 | 131.43141 | 18362 ft | 339 kts | 274° |
| 2026-04-21 11:29 | 43.21807 | 131.39933 | 19077 ft | 338 kts | 277° |
| 2026-04-21 11:30 | 43.22063 | 131.36718 | 19745 ft | 336 kts | 278° |
| 2026-04-21 11:30 | 43.22312 | 131.33499 | 20219 ft | 343 kts | 277° |
| 2026-04-21 11:30 | 43.22555 | 131.30232 | 20826 ft | 347 kts | 277° |
| 2026-04-21 11:30 | 43.22794 | 131.26926 | 21468 ft | 349 kts | 277° |
| 2026-04-21 11:31 | 43.23029 | 131.23599 | 22142 ft | 352 kts | 278° |
| 2026-04-21 11:31 | 43.23263 | 131.20249 | 22837 ft | 353 kts | 278° |
| 2026-04-21 11:31 | 43.23469 | 131.16881 | 23436 ft | 356 kts | 277° |
| 2026-04-21 11:31 | 43.23638 | 131.13479 | 23958 ft | 359 kts | 277° |
| 2026-04-21 11:32 | 43.23794 | 131.10062 | 24559 ft | 358 kts | 276° |
| 2026-04-21 11:32 | 43.23947 | 131.06658 | 25167 ft | 358 kts | 276° |
| 2026-04-21 11:32 | 43.24100 | 131.03250 | 25741 ft | 358 kts | 277° |
| 2026-04-21 11:32 | 43.24256 | 130.99831 | 26244 ft | 360 kts | 277° |
| 2026-04-21 11:33 | 43.24413 | 130.96406 | 26753 ft | 361 kts | 277° |
| 2026-04-21 11:33 | 43.24573 | 130.92966 | 27282 ft | 361 kts | 277° |
| 2026-04-21 11:33 | 43.24731 | 130.89529 | 27761 ft | 362 kts | 277° |
| 2026-04-21 11:33 | 43.24890 | 130.86083 | 28197 ft | 363 kts | 277° |
| 2026-04-21 11:34 | 43.25045 | 130.82621 | 28648 ft | 363 kts | 277° |
| 2026-04-21 11:34 | 43.25200 | 130.79159 | 29093 ft | 365 kts | 277° |
| 2026-04-21 11:34 | 43.25357 | 130.75677 | 29446 ft | 367 kts | 277° |
| 2026-04-21 11:34 | 43.25514 | 130.72186 | 29810 ft | 367 kts | 277° |
| 2026-04-21 11:35 | 43.25671 | 130.68683 | 30044 ft | 369 kts | 276° |
| 2026-04-21 11:35 | 43.25826 | 130.65148 | 30229 ft | 372 kts | 276° |
| 2026-04-21 11:35 | 43.25981 | 130.61598 | 30452 ft | 374 kts | 276° |
| 2026-04-21 11:35 | 43.26135 | 130.58030 | 30685 ft | 375 kts | 276° |
| 2026-04-21 11:36 | 43.26289 | 130.54452 | 30864 ft | 376 kts | 276° |
| 2026-04-21 11:36 | 43.26443 | 130.50860 | 31031 ft | 379 kts | 276° |
| 2026-04-21 11:36 | 43.26597 | 130.47239 | 31181 ft | 381 kts | 276° |
| 2026-04-21 11:36 | 43.26750 | 130.43615 | 31401 ft | 381 kts | 276° |
| 2026-04-21 11:37 | 43.26900 | 130.40032 | 31603 ft | 381 kts | 276° |
| 2026-04-21 11:37 | 43.27053 | 130.36343 | 31685 ft | 384 kts | 276° |
| 2026-04-21 11:37 | 43.27351 | 130.29074 | 31798 ft | 383 kts | 276° |
| 2026-04-21 11:38 | 43.27498 | 130.25429 | 32017 ft | 383 kts | 276° |
| 2026-04-21 11:38 | 43.27646 | 130.21784 | 32310 ft | 381 kts | 276° |
| 2026-04-21 11:38 | 43.27791 | 130.18159 | 32563 ft | 380 kts | 276° |
| 2026-04-21 11:38 | 43.27933 | 130.14550 | 32842 ft | 379 kts | 276° |
| 2026-04-21 11:39 | 43.28074 | 130.10938 | 33056 ft | 378 kts | 276° |
| 2026-04-21 11:39 | 43.28216 | 130.07334 | 33257 ft | 379 kts | 276° |
| 2026-04-21 11:39 | 43.28355 | 130.03727 | 33442 ft | 379 kts | 276° |
| 2026-04-21 11:39 | 43.28495 | 130.00118 | 33589 ft | 379 kts | 276° |
| 2026-04-21 11:40 | 43.28767 | 129.92909 | 33680 ft | 376 kts | 276° |
| 2026-04-21 11:40 | 43.29035 | 129.85742 | 33689 ft | 375 kts | 276° |
| 2026-04-21 11:41 | 43.29381 | 129.78608 | 33687 ft | 373 kts | 278° |
| 2026-04-21 11:41 | 43.30266 | 129.71617 | 33689 ft | 371 kts | 282° |
| 2026-04-21 11:42 | 43.31268 | 129.64671 | 33691 ft | 371 kts | 282° |
| 2026-04-21 11:42 | 43.32260 | 129.57724 | 33698 ft | 371 kts | 282° |
| 2026-04-21 11:43 | 43.33246 | 129.50768 | 33698 ft | 371 kts | 281° |
| 2026-04-21 11:43 | 43.34226 | 129.43806 | 33686 ft | 371 kts | 281° |
| 2026-04-21 11:44 | 43.35201 | 129.36840 | 33700 ft | 372 kts | 281° |
| 2026-04-21 11:44 | 43.36176 | 129.29855 | 33687 ft | 371 kts | 281° |
| 2026-04-21 11:45 | 43.37137 | 129.22929 | 33700 ft | 370 kts | 281° |
| 2026-04-21 11:45 | 43.38099 | 129.15974 | 33695 ft | 370 kts | 281° |
| 2026-04-21 11:46 | 43.39056 | 129.09021 | 33700 ft | 370 kts | 281° |
| 2026-04-21 11:46 | 43.39996 | 129.02066 | 33707 ft | 370 kts | 281° |
| 2026-04-21 11:47 | 43.40913 | 128.95109 | 33702 ft | 370 kts | 281° |
| 2026-04-21 11:47 | 43.41825 | 128.88149 | 33708 ft | 370 kts | 281° |
| 2026-04-21 11:48 | 43.42734 | 128.81191 | 33711 ft | 369 kts | 281° |
| 2026-04-21 11:48 | 43.43640 | 128.74245 | 33712 ft | 368 kts | 281° |
| 2026-04-21 11:49 | 43.44539 | 128.67308 | 33698 ft | 368 kts | 280° |
| 2026-04-21 11:49 | 43.45431 | 128.60386 | 33726 ft | 367 kts | 280° |
| 2026-04-21 11:50 | 43.46321 | 128.53455 | 33710 ft | 368 kts | 280° |
| 2026-04-21 11:50 | 43.47208 | 128.46516 | 33708 ft | 368 kts | 280° |
| 2026-04-21 11:51 | 43.48085 | 128.39608 | 33711 ft | 369 kts | 280° |
| 2026-04-21 11:51 | 43.48966 | 128.32651 | 33715 ft | 369 kts | 280° |
| 2026-04-21 11:52 | 43.49851 | 128.25687 | 33715 ft | 369 kts | 280° |
| 2026-04-21 11:52 | 43.50775 | 128.18730 | 33721 ft | 369 kts | 281° |
| 2026-04-21 11:53 | 43.51701 | 128.11762 | 33723 ft | 370 kts | 280° |
| 2026-04-21 11:53 | 43.52616 | 128.04799 | 33720 ft | 369 kts | 280° |
| 2026-04-21 11:54 | 43.53528 | 127.97826 | 33729 ft | 369 kts | 280° |
| 2026-04-21 11:54 | 43.54432 | 127.90865 | 33761 ft | 368 kts | 280° |
| 2026-04-21 11:55 | 43.55331 | 127.83926 | 33810 ft | 368 kts | 280° |
| 2026-04-21 11:55 | 43.56219 | 127.77016 | 33821 ft | 368 kts | 280° |
| 2026-04-21 11:56 | 43.57100 | 127.70058 | 33823 ft | 369 kts | 280° |
| 2026-04-21 11:56 | 43.57979 | 127.63077 | 33816 ft | 370 kts | 280° |
| 2026-04-21 11:57 | 43.58858 | 127.56077 | 33819 ft | 370 kts | 280° |
| 2026-04-21 11:57 | 43.59732 | 127.49078 | 33818 ft | 371 kts | 280° |
| 2026-04-21 11:58 | 43.60602 | 127.42072 | 33804 ft | 370 kts | 280° |
| 2026-04-21 11:58 | 43.61462 | 127.35123 | 33827 ft | 370 kts | 279° |
| 2026-04-21 11:59 | 43.62323 | 127.28115 | 33827 ft | 370 kts | 279° |
| 2026-04-21 11:59 | 43.63115 | 127.21086 | 33819 ft | 370 kts | 279° |
| 2026-04-21 12:00 | 43.63870 | 127.14059 | 33820 ft | 370 kts | 279° |
| 2026-04-21 12:00 | 43.64624 | 127.07051 | 33825 ft | 369 kts | 279° |
| 2026-04-21 12:01 | 43.65379 | 127.00018 | 33821 ft | 370 kts | 279° |
| 2026-04-21 12:01 | 43.66131 | 126.92985 | 33830 ft | 370 kts | 279° |
| 2026-04-21 12:02 | 43.67260 | 126.82420 | 33822 ft | 371 kts | 279° |
| 2026-04-21 12:03 | 43.68003 | 126.75363 | 33814 ft | 372 kts | 278° |
| 2026-04-21 12:03 | 43.68740 | 126.68340 | 33820 ft | 372 kts | 278° |
| 2026-04-21 12:04 | 43.69480 | 126.61270 | 33818 ft | 372 kts | 278° |
| 2026-04-21 12:04 | 43.70215 | 126.54183 | 33809 ft | 372 kts | 278° |
| 2026-04-21 12:05 | 43.70943 | 126.47112 | 33812 ft | 371 kts | 278° |
| 2026-04-21 12:05 | 43.71667 | 126.40048 | 33812 ft | 371 kts | 278° |
| 2026-04-21 12:06 | 43.72385 | 126.32995 | 33822 ft | 370 kts | 278° |
| 2026-04-21 12:06 | 43.73100 | 126.25934 | 33813 ft | 371 kts | 278° |
| 2026-04-21 12:07 | 43.73809 | 126.18875 | 33817 ft | 370 kts | 278° |
| 2026-04-21 12:07 | 43.74515 | 126.11812 | 33815 ft | 371 kts | 278° |
| 2026-04-21 12:08 | 43.75218 | 126.04739 | 33817 ft | 371 kts | 278° |
| 2026-04-21 12:08 | 43.75916 | 125.97667 | 33820 ft | 371 kts | 278° |
| 2026-04-21 12:09 | 43.76680 | 125.90616 | 33820 ft | 371 kts | 279° |
| 2026-04-21 12:09 | 43.77063 | 125.83483 | 33822 ft | 372 kts | 273° |
| 2026-04-21 12:10 | 43.76861 | 125.76316 | 33830 ft | 374 kts | 269° |
| 2026-04-21 12:10 | 43.76468 | 125.69192 | 33855 ft | 374 kts | 269° |
| 2026-04-21 12:11 | 43.76065 | 125.62020 | 33849 ft | 373 kts | 269° |
| 2026-04-21 12:11 | 43.75667 | 125.54861 | 33844 ft | 373 kts | 269° |
| 2026-04-21 12:12 | 43.75337 | 125.48914 | 33838 ft | 373 kts | 269° |
| 2026-04-21 12:12 | 43.74871 | 125.40562 | 33833 ft | 373 kts | 269° |
| 2026-04-21 12:13 | 43.74466 | 125.33408 | 33833 ft | 372 kts | 269° |
| 2026-04-21 12:13 | 43.74127 | 125.27467 | 33838 ft | 372 kts | 269° |
| 2026-04-21 12:14 | 43.73649 | 125.19185 | 33838 ft | 372 kts | 269° |
| 2026-04-21 12:14 | 43.73233 | 125.12068 | 33843 ft | 371 kts | 269° |
| 2026-04-21 12:15 | 43.72882 | 125.06110 | 33846 ft | 371 kts | 269° |
| 2026-04-21 12:15 | 43.72462 | 124.99062 | 33851 ft | 370 kts | 269° |
| 2026-04-21 12:16 | 43.72036 | 124.91975 | 33852 ft | 369 kts | 269° |
| 2026-04-21 12:16 | 43.71606 | 124.84906 | 33858 ft | 369 kts | 269° |
| 2026-04-21 12:17 | 43.71172 | 124.77849 | 33857 ft | 368 kts | 269° |
| 2026-04-21 12:17 | 43.70735 | 124.70799 | 33857 ft | 368 kts | 269° |
| 2026-04-21 12:18 | 43.70294 | 124.63754 | 33870 ft | 367 kts | 269° |
| 2026-04-21 12:18 | 43.69849 | 124.56723 | 33874 ft | 367 kts | 269° |
| 2026-04-21 12:19 | 43.69400 | 124.49692 | 33874 ft | 367 kts | 269° |
| 2026-04-21 12:19 | 43.68946 | 124.42654 | 33886 ft | 367 kts | 269° |
| 2026-04-21 12:20 | 43.68492 | 124.35663 | 33886 ft | 367 kts | 269° |
| 2026-04-21 12:20 | 43.68032 | 124.28634 | 33885 ft | 367 kts | 269° |
| 2026-04-21 12:21 | 43.67625 | 124.21600 | 33885 ft | 367 kts | 269° |
| 2026-04-21 12:21 | 43.67231 | 124.14570 | 33886 ft | 367 kts | 269° |
| 2026-04-21 12:22 | 43.66831 | 124.07548 | 33894 ft | 367 kts | 269° |
| 2026-04-21 12:22 | 43.66422 | 124.00520 | 33893 ft | 366 kts | 269° |
| 2026-04-21 12:23 | 43.66009 | 123.93514 | 33898 ft | 366 kts | 269° |
| 2026-04-21 12:23 | 43.65591 | 123.86502 | 33899 ft | 366 kts | 269° |
| 2026-04-21 12:24 | 43.65170 | 123.79507 | 33901 ft | 365 kts | 269° |
| 2026-04-21 12:24 | 43.64745 | 123.72521 | 33899 ft | 365 kts | 269° |
| 2026-04-21 12:25 | 43.64315 | 123.65539 | 33908 ft | 365 kts | 269° |
| 2026-04-21 12:25 | 43.63885 | 123.58606 | 33914 ft | 365 kts | 269° |
| 2026-04-21 12:26 | 43.63448 | 123.51626 | 33918 ft | 365 kts | 269° |
| 2026-04-21 12:26 | 43.63005 | 123.44638 | 33920 ft | 365 kts | 269° |
| 2026-04-21 12:27 | 43.62560 | 123.37661 | 33917 ft | 365 kts | 269° |
| 2026-04-21 12:27 | 43.62110 | 123.30683 | 33922 ft | 364 kts | 269° |
| 2026-04-21 12:28 | 43.61658 | 123.23725 | 33924 ft | 364 kts | 268° |
| 2026-04-21 12:28 | 43.61224 | 123.16781 | 33925 ft | 363 kts | 269° |
| 2026-04-21 12:29 | 43.60879 | 123.09841 | 33923 ft | 362 kts | 269° |
| 2026-04-21 12:29 | 43.60541 | 123.02927 | 33934 ft | 361 kts | 269° |
| 2026-04-21 12:30 | 43.60193 | 122.96036 | 33932 ft | 360 kts | 269° |
| 2026-04-21 12:30 | 43.59840 | 122.89201 | 33934 ft | 359 kts | 269° |
| 2026-04-21 12:31 | 43.59479 | 122.82335 | 33932 ft | 359 kts | 269° |
| 2026-04-21 12:31 | 43.59115 | 122.75476 | 33936 ft | 358 kts | 269° |
| 2026-04-21 12:32 | 43.58747 | 122.68614 | 33937 ft | 359 kts | 269° |
| 2026-04-21 12:32 | 43.58374 | 122.61751 | 33934 ft | 359 kts | 269° |
| 2026-04-21 12:33 | 43.57997 | 122.54887 | 33935 ft | 359 kts | 269° |
| 2026-04-21 12:33 | 43.57615 | 122.48021 | 33938 ft | 359 kts | 269° |
| 2026-04-21 12:34 | 43.57230 | 122.41159 | 33935 ft | 359 kts | 269° |
| 2026-04-21 12:34 | 43.56843 | 122.34301 | 33935 ft | 359 kts | 269° |
| 2026-04-21 12:35 | 43.56438 | 122.27445 | 33931 ft | 359 kts | 267° |
| 2026-04-21 12:35 | 43.55085 | 122.20724 | 33934 ft | 368 kts | 257° |
| 2026-04-21 12:36 | 43.53111 | 122.14208 | 33925 ft | 371 kts | 251° |
| 2026-04-21 12:36 | 43.50154 | 122.08242 | 33931 ft | 379 kts | 245° |
| 2026-04-21 12:37 | 43.47059 | 122.02362 | 33933 ft | 379 kts | 245° |
| 2026-04-21 12:37 | 43.43986 | 121.96500 | 33931 ft | 380 kts | 245° |
| 2026-04-21 12:38 | 43.40905 | 121.90597 | 33934 ft | 380 kts | 245° |
| 2026-04-21 12:38 | 43.37820 | 121.84684 | 33924 ft | 381 kts | 245° |
| 2026-04-21 12:39 | 43.34733 | 121.78772 | 33925 ft | 381 kts | 245° |
| 2026-04-21 12:39 | 43.31635 | 121.72850 | 33937 ft | 382 kts | 245° |
| 2026-04-21 12:40 | 43.28530 | 121.66928 | 33932 ft | 382 kts | 245° |
| 2026-04-21 12:40 | 43.25419 | 121.61006 | 33932 ft | 383 kts | 245° |
| 2026-04-21 12:41 | 43.22300 | 121.55079 | 33940 ft | 383 kts | 245° |
| 2026-04-21 12:41 | 43.19176 | 121.49156 | 33937 ft | 384 kts | 244° |
| 2026-04-21 12:42 | 43.16042 | 121.43225 | 33935 ft | 384 kts | 244° |
| 2026-04-21 12:42 | 43.12905 | 121.37300 | 33938 ft | 385 kts | 244° |
| 2026-04-21 12:43 | 43.09772 | 121.31394 | 33942 ft | 386 kts | 244° |
| 2026-04-21 12:43 | 43.06612 | 121.25451 | 33941 ft | 386 kts | 244° |
| 2026-04-21 12:44 | 43.03448 | 121.19513 | 33944 ft | 387 kts | 244° |
| 2026-04-21 12:44 | 43.00276 | 121.13571 | 33942 ft | 387 kts | 244° |
| 2026-04-21 12:45 | 42.97093 | 121.07619 | 33944 ft | 388 kts | 244° |
| 2026-04-21 12:45 | 42.93902 | 121.01664 | 33953 ft | 388 kts | 243° |
| 2026-04-21 12:46 | 42.90704 | 120.95710 | 33945 ft | 389 kts | 243° |
| 2026-04-21 12:46 | 42.87514 | 120.89779 | 33941 ft | 390 kts | 243° |
| 2026-04-21 12:47 | 42.84302 | 120.83822 | 33941 ft | 390 kts | 243° |
| 2026-04-21 12:47 | 42.81083 | 120.77864 | 33937 ft | 391 kts | 243° |
| 2026-04-21 12:48 | 42.77855 | 120.71901 | 33943 ft | 391 kts | 243° |
| 2026-04-21 12:48 | 42.74624 | 120.65944 | 33941 ft | 391 kts | 243° |
| 2026-04-21 12:49 | 42.71386 | 120.59987 | 33945 ft | 392 kts | 242° |
| 2026-04-21 12:49 | 42.68140 | 120.54026 | 33943 ft | 392 kts | 242° |
| 2026-04-21 12:50 | 42.64913 | 120.48110 | 33935 ft | 392 kts | 242° |
| 2026-04-21 12:50 | 42.61660 | 120.42160 | 33951 ft | 393 kts | 242° |
| 2026-04-21 12:51 | 42.58394 | 120.36199 | 33944 ft | 393 kts | 242° |
| 2026-04-21 12:51 | 42.55123 | 120.30239 | 33937 ft | 394 kts | 242° |
| 2026-04-21 12:52 | 42.51842 | 120.24274 | 33942 ft | 394 kts | 242° |
| 2026-04-21 12:52 | 42.48563 | 120.18325 | 33945 ft | 394 kts | 242° |
| 2026-04-21 12:53 | 42.45279 | 120.12378 | 33943 ft | 394 kts | 242° |
| 2026-04-21 12:53 | 42.41993 | 120.06439 | 33953 ft | 395 kts | 241° |
| 2026-04-21 12:54 | 42.38696 | 120.00491 | 33942 ft | 395 kts | 241° |
| 2026-04-21 12:54 | 42.35415 | 119.94585 | 33943 ft | 395 kts | 241° |
| 2026-04-21 12:55 | 42.32111 | 119.88649 | 33937 ft | 395 kts | 241° |
| 2026-04-21 12:55 | 42.28808 | 119.82729 | 33951 ft | 394 kts | 240° |
| 2026-04-21 12:56 | 42.25504 | 119.76816 | 33943 ft | 394 kts | 240° |
| 2026-04-21 12:56 | 42.22197 | 119.70908 | 33942 ft | 395 kts | 240° |
| 2026-04-21 12:57 | 42.18890 | 119.65011 | 33940 ft | 394 kts | 240° |
| 2026-04-21 12:57 | 42.15573 | 119.59109 | 33947 ft | 394 kts | 240° |
| 2026-04-21 12:58 | 42.12254 | 119.53216 | 33933 ft | 395 kts | 240° |
| 2026-04-21 12:58 | 42.08927 | 119.47320 | 33933 ft | 396 kts | 240° |
| 2026-04-21 12:59 | 42.05594 | 119.41424 | 33946 ft | 396 kts | 239° |
| 2026-04-21 12:59 | 42.02254 | 119.35529 | 33939 ft | 397 kts | 239° |
| 2026-04-21 13:00 | 41.99471 | 119.30625 | 33936 ft | 397 kts | 239° |
| 2026-04-21 13:00 | 41.96122 | 119.24735 | 33939 ft | 397 kts | 239° |
| 2026-04-21 13:01 | 41.92768 | 119.18846 | 33940 ft | 397 kts | 239° |
| 2026-04-21 13:01 | 41.89409 | 119.12960 | 33938 ft | 398 kts | 239° |
| 2026-04-21 13:02 | 41.86035 | 119.07061 | 33944 ft | 398 kts | 239° |
| 2026-04-21 13:02 | 41.80967 | 118.98221 | 33948 ft | 399 kts | 239° |
| 2026-04-21 13:03 | 41.77577 | 118.92321 | 33952 ft | 398 kts | 238° |
| 2026-04-21 13:03 | 41.74216 | 118.86484 | 33951 ft | 398 kts | 238° |
| 2026-04-21 13:04 | 41.70805 | 118.80571 | 33961 ft | 399 kts | 238° |
| 2026-04-21 13:04 | 41.67424 | 118.74719 | 33977 ft | 401 kts | 238° |
| 2026-04-21 13:05 | 41.64007 | 118.68818 | 33969 ft | 401 kts | 238° |
| 2026-04-21 13:05 | 41.60582 | 118.62913 | 33988 ft | 403 kts | 238° |
| 2026-04-21 13:06 | 41.57142 | 118.56997 | 33977 ft | 403 kts | 238° |
| 2026-04-21 13:06 | 41.53698 | 118.51081 | 33989 ft | 404 kts | 238° |
| 2026-04-21 13:07 | 41.50256 | 118.45154 | 33989 ft | 403 kts | 239° |
| 2026-04-21 13:07 | 41.47260 | 118.38887 | 33989 ft | 400 kts | 243° |
| 2026-04-21 13:08 | 41.44378 | 118.32578 | 33995 ft | 401 kts | 243° |
| 2026-04-21 13:08 | 41.41456 | 118.26222 | 33993 ft | 402 kts | 243° |
| 2026-04-21 13:09 | 41.38529 | 118.19870 | 33994 ft | 403 kts | 243° |
| 2026-04-21 13:09 | 41.35593 | 118.13511 | 33992 ft | 403 kts | 243° |
| 2026-04-21 13:10 | 41.32651 | 118.07152 | 33984 ft | 403 kts | 243° |
| 2026-04-21 13:10 | 41.29707 | 118.00800 | 33981 ft | 403 kts | 243° |
| 2026-04-21 13:11 | 41.26762 | 117.94461 | 33987 ft | 402 kts | 242° |
| 2026-04-21 13:11 | 41.23821 | 117.88144 | 33984 ft | 402 kts | 242° |
| 2026-04-21 13:12 | 41.20876 | 117.81829 | 33996 ft | 401 kts | 242° |
| 2026-04-21 13:12 | 41.17929 | 117.75518 | 33987 ft | 403 kts | 242° |
| 2026-04-21 13:13 | 41.14965 | 117.69185 | 33972 ft | 404 kts | 242° |
| 2026-04-21 13:13 | 41.11986 | 117.62841 | 33979 ft | 406 kts | 242° |
| 2026-04-21 13:14 | 41.08998 | 117.56484 | 33986 ft | 406 kts | 242° |
| 2026-04-21 13:14 | 41.05986 | 117.50149 | 33979 ft | 407 kts | 238° |
| 2026-04-21 13:15 | 41.01904 | 117.44877 | 33999 ft | 419 kts | 224° |
| 2026-04-21 13:15 | 40.96812 | 117.40912 | 33988 ft | 435 kts | 210° |
| 2026-04-21 13:16 | 40.91121 | 117.38119 | 34000 ft | 437 kts | 209° |
| 2026-04-21 13:16 | 40.85437 | 117.35315 | 34001 ft | 435 kts | 210° |
| 2026-04-21 13:17 | 40.79789 | 117.32452 | 34002 ft | 434 kts | 210° |
| 2026-04-21 13:17 | 40.74318 | 117.29307 | 33997 ft | 418 kts | 221° |
| 2026-04-21 13:18 | 40.70130 | 117.24207 | 34016 ft | 409 kts | 235° |
| 2026-04-21 13:18 | 40.67256 | 117.17831 | 34010 ft | 406 kts | 246° |
| 2026-04-21 13:19 | 40.64701 | 117.11126 | 34009 ft | 412 kts | 245° |
| 2026-04-21 13:19 | 40.62087 | 117.04361 | 34011 ft | 416 kts | 245° |
| 2026-04-21 13:20 | 40.59460 | 116.97641 | 33999 ft | 409 kts | 245° |
| 2026-04-21 13:20 | 40.56873 | 116.91057 | 34005 ft | 408 kts | 245° |
| 2026-04-21 13:21 | 40.54261 | 116.84425 | 34009 ft | 408 kts | 245° |
| 2026-04-21 13:21 | 40.51644 | 116.77791 | 33994 ft | 409 kts | 245° |
| 2026-04-21 13:22 | 40.49020 | 116.71151 | 34003 ft | 409 kts | 244° |
| 2026-04-21 13:22 | 40.46387 | 116.64514 | 33988 ft | 410 kts | 245° |
| 2026-04-21 13:23 | 40.43746 | 116.57864 | 34007 ft | 412 kts | 245° |
| 2026-04-21 13:23 | 40.41102 | 116.51218 | 34004 ft | 414 kts | 245° |
| 2026-04-21 13:24 | 40.38430 | 116.44523 | 33999 ft | 414 kts | 244° |
| 2026-04-21 13:24 | 40.35752 | 116.37826 | 33997 ft | 415 kts | 244° |
| 2026-04-21 13:25 | 40.32741 | 116.31376 | 33983 ft | 416 kts | 238° |
| 2026-04-21 13:25 | 40.29057 | 116.25477 | 33996 ft | 418 kts | 233° |
| 2026-04-21 13:26 | 40.25281 | 116.19696 | 34000 ft | 417 kts | 233° |
| 2026-04-21 13:26 | 40.21514 | 116.13911 | 34000 ft | 417 kts | 233° |
| 2026-04-21 13:27 | 40.17754 | 116.08134 | 34006 ft | 417 kts | 233° |
| 2026-04-21 13:27 | 40.13991 | 116.02359 | 34008 ft | 417 kts | 233° |
| 2026-04-21 13:28 | 40.10247 | 115.96624 | 34010 ft | 418 kts | 233° |
| 2026-04-21 13:28 | 40.06466 | 115.90843 | 34011 ft | 418 kts | 233° |
| 2026-04-21 13:29 | 40.02679 | 115.85064 | 34007 ft | 420 kts | 233° |
| 2026-04-21 13:29 | 39.98872 | 115.79265 | 34016 ft | 421 kts | 233° |
| 2026-04-21 13:30 | 39.95058 | 115.73468 | 34020 ft | 422 kts | 233° |
| 2026-04-21 13:30 | 39.91236 | 115.67668 | 34024 ft | 423 kts | 233° |
| 2026-04-21 13:31 | 39.87401 | 115.61858 | 34023 ft | 423 kts | 233° |
| 2026-04-21 13:31 | 39.83558 | 115.56049 | 34028 ft | 423 kts | 233° |
| 2026-04-21 13:32 | 39.79716 | 115.50248 | 34032 ft | 423 kts | 233° |
| 2026-04-21 13:32 | 39.76110 | 115.44238 | 34041 ft | 421 kts | 239° |
| 2026-04-21 13:33 | 39.73250 | 115.37690 | 34035 ft | 418 kts | 244° |
| 2026-04-21 13:33 | 39.70605 | 115.30947 | 34046 ft | 419 kts | 244° |
| 2026-04-21 13:34 | 39.67940 | 115.24195 | 34050 ft | 421 kts | 244° |
| 2026-04-21 13:34 | 39.65253 | 115.17419 | 34046 ft | 422 kts | 244° |
| 2026-04-21 13:35 | 39.62553 | 115.10636 | 34043 ft | 424 kts | 244° |
| 2026-04-21 13:35 | 39.59841 | 115.03839 | 34037 ft | 424 kts | 244° |
| 2026-04-21 13:36 | 39.57125 | 114.97046 | 34044 ft | 425 kts | 244° |
| 2026-04-21 13:36 | 39.54397 | 114.90239 | 34055 ft | 426 kts | 244° |
| 2026-04-21 13:37 | 39.51658 | 114.83417 | 34053 ft | 427 kts | 244° |
| 2026-04-21 13:37 | 39.48910 | 114.76589 | 34050 ft | 428 kts | 244° |
| 2026-04-21 13:38 | 39.46175 | 114.69811 | 34066 ft | 427 kts | 244° |
| 2026-04-21 13:38 | 39.43420 | 114.62993 | 34050 ft | 427 kts | 244° |
| 2026-04-21 13:39 | 39.40663 | 114.56183 | 34066 ft | 428 kts | 244° |
| 2026-04-21 13:39 | 39.37890 | 114.49363 | 34068 ft | 428 kts | 243° |
| 2026-04-21 13:40 | 39.35088 | 114.42553 | 34072 ft | 429 kts | 243° |
| 2026-04-21 13:40 | 39.32278 | 114.35733 | 34068 ft | 430 kts | 244° |
| 2026-04-21 13:41 | 39.29474 | 114.28917 | 34068 ft | 430 kts | 244° |
| 2026-04-21 13:41 | 39.26688 | 114.22130 | 34076 ft | 431 kts | 244° |
| 2026-04-21 13:42 | 39.23175 | 114.15914 | 34077 ft | 437 kts | 224° |
| 2026-04-21 13:42 | 39.17930 | 114.11794 | 34053 ft | 451 kts | 204° |
| 2026-04-21 13:43 | 39.11844 | 114.09643 | 34072 ft | 455 kts | 200° |
| 2026-04-21 13:43 | 39.05703 | 114.07579 | 34072 ft | 456 kts | 201° |
| 2026-04-21 13:44 | 38.99569 | 114.05441 | 34068 ft | 458 kts | 201° |
| 2026-04-21 13:44 | 38.93462 | 114.03270 | 34059 ft | 457 kts | 201° |
| 2026-04-21 13:45 | 38.87338 | 114.01090 | 34074 ft | 456 kts | 201° |
| 2026-04-21 13:45 | 38.81217 | 113.98921 | 34078 ft | 456 kts | 201° |
| 2026-04-21 13:46 | 38.75096 | 113.96754 | 34068 ft | 456 kts | 201° |
| 2026-04-21 13:46 | 38.68979 | 113.94593 | 34069 ft | 455 kts | 201° |
| 2026-04-21 13:47 | 38.62869 | 113.92442 | 34055 ft | 455 kts | 201° |
| 2026-04-21 13:47 | 38.56770 | 113.90307 | 34069 ft | 453 kts | 201° |
| 2026-04-21 13:48 | 38.51720 | 113.88544 | 34070 ft | 453 kts | 201° |
| 2026-04-21 13:48 | 38.45627 | 113.86418 | 34071 ft | 454 kts | 201° |
| 2026-04-21 13:49 | 38.39541 | 113.84294 | 34060 ft | 454 kts | 201° |
| 2026-04-21 13:49 | 38.33458 | 113.82178 | 34061 ft | 452 kts | 201° |
| 2026-04-21 13:50 | 38.27397 | 113.80081 | 34066 ft | 451 kts | 201° |
| 2026-04-21 13:50 | 38.21344 | 113.77994 | 34077 ft | 451 kts | 201° |
| 2026-04-21 13:51 | 38.15280 | 113.75906 | 34077 ft | 451 kts | 201° |
| 2026-04-21 13:51 | 38.09234 | 113.73820 | 34075 ft | 450 kts | 201° |
| 2026-04-21 13:52 | 38.03205 | 113.71747 | 34081 ft | 449 kts | 201° |
| 2026-04-21 13:52 | 37.97181 | 113.69681 | 34085 ft | 448 kts | 201° |
| 2026-04-21 13:53 | 37.91170 | 113.67622 | 34081 ft | 447 kts | 201° |
| 2026-04-21 13:53 | 37.85170 | 113.65570 | 34097 ft | 446 kts | 201° |
| 2026-04-21 13:54 | 37.79187 | 113.63527 | 34100 ft | 445 kts | 201° |
| 2026-04-21 13:54 | 37.73244 | 113.61501 | 34101 ft | 444 kts | 201° |
| 2026-04-21 13:55 | 37.67280 | 113.59472 | 34110 ft | 444 kts | 201° |
| 2026-04-21 13:55 | 37.61320 | 113.57448 | 34120 ft | 443 kts | 201° |
| 2026-04-21 13:56 | 37.55361 | 113.55427 | 34126 ft | 443 kts | 201° |
| 2026-04-21 13:56 | 37.49399 | 113.53407 | 34145 ft | 443 kts | 201° |
| 2026-04-21 13:57 | 37.43436 | 113.51392 | 34144 ft | 444 kts | 201° |
| 2026-04-21 13:57 | 37.37477 | 113.49382 | 34151 ft | 443 kts | 201° |
| 2026-04-21 13:58 | 37.31523 | 113.47376 | 34153 ft | 442 kts | 201° |
| 2026-04-21 13:58 | 37.25588 | 113.45380 | 34170 ft | 441 kts | 201° |
| 2026-04-21 13:59 | 37.19664 | 113.43391 | 34168 ft | 440 kts | 201° |
| 2026-04-21 13:59 | 37.13759 | 113.41411 | 34176 ft | 438 kts | 201° |
| 2026-04-21 14:00 | 37.07879 | 113.39443 | 34179 ft | 438 kts | 201° |
| 2026-04-21 14:00 | 37.02029 | 113.37488 | 34171 ft | 437 kts | 201° |
| 2026-04-21 14:01 | 36.96157 | 113.35528 | 34178 ft | 436 kts | 201° |
| 2026-04-21 14:01 | 36.90293 | 113.33574 | 34188 ft | 436 kts | 201° |
| 2026-04-21 14:02 | 36.84419 | 113.31620 | 34176 ft | 437 kts | 201° |
| 2026-04-21 14:03 | 36.75588 | 113.28689 | 34179 ft | 438 kts | 201° |
| 2026-04-21 14:03 | 36.69700 | 113.26738 | 34183 ft | 438 kts | 201° |
| 2026-04-21 14:04 | 36.63801 | 113.24787 | 34175 ft | 438 kts | 201° |
| 2026-04-21 14:04 | 36.57905 | 113.22840 | 34179 ft | 438 kts | 201° |
| 2026-04-21 14:05 | 36.52021 | 113.20899 | 34221 ft | 435 kts | 201° |
| 2026-04-21 14:05 | 36.46161 | 113.18972 | 34191 ft | 436 kts | 201° |
| 2026-04-21 14:06 | 36.40281 | 113.17038 | 34180 ft | 438 kts | 201° |
| 2026-04-21 14:06 | 36.34374 | 113.15098 | 34189 ft | 440 kts | 201° |
| 2026-04-21 14:07 | 36.28451 | 113.13157 | 34185 ft | 441 kts | 201° |
| 2026-04-21 14:07 | 36.22586 | 113.11012 | 34191 ft | 436 kts | 207° |
| 2026-04-21 14:08 | 36.17025 | 113.08075 | 34191 ft | 435 kts | 209° |
| 2026-04-21 14:08 | 36.11443 | 113.05133 | 34190 ft | 436 kts | 209° |
| 2026-04-21 14:09 | 36.05858 | 113.02216 | 34193 ft | 436 kts | 208° |
| 2026-04-21 14:09 | 36.00266 | 112.99302 | 34194 ft | 436 kts | 208° |
| 2026-04-21 14:10 | 35.94675 | 112.96393 | 34188 ft | 436 kts | 208° |
| 2026-04-21 14:10 | 35.89086 | 112.93488 | 34186 ft | 436 kts | 208° |
| 2026-04-21 14:11 | 35.83493 | 112.90585 | 34190 ft | 436 kts | 208° |
| 2026-04-21 14:11 | 35.77896 | 112.87684 | 34184 ft | 437 kts | 208° |
| 2026-04-21 14:12 | 35.72293 | 112.84768 | 34188 ft | 438 kts | 208° |
| 2026-04-21 14:12 | 35.66676 | 112.81843 | 34187 ft | 439 kts | 208° |
| 2026-04-21 14:13 | 35.61077 | 112.78934 | 34190 ft | 440 kts | 208° |
| 2026-04-21 14:13 | 35.55387 | 112.75978 | 34192 ft | 441 kts | 208° |
| 2026-04-21 14:14 | 35.49733 | 112.73029 | 34192 ft | 442 kts | 208° |
| 2026-04-21 14:14 | 35.44059 | 112.70072 | 34189 ft | 443 kts | 208° |
| 2026-04-21 14:15 | 35.38420 | 112.67141 | 34190 ft | 443 kts | 208° |
| 2026-04-21 14:15 | 35.32739 | 112.64192 | 34185 ft | 443 kts | 208° |
| 2026-04-21 14:16 | 35.27055 | 112.61246 | 34183 ft | 444 kts | 208° |
| 2026-04-21 14:16 | 35.21359 | 112.58297 | 34178 ft | 445 kts | 208° |
| 2026-04-21 14:17 | 35.15655 | 112.55372 | 34184 ft | 444 kts | 207° |
| 2026-04-21 14:17 | 35.09918 | 112.52560 | 34179 ft | 446 kts | 204° |
| 2026-04-21 14:18 | 35.03951 | 112.50376 | 34187 ft | 447 kts | 202° |
| 2026-04-21 14:18 | 34.97985 | 112.48212 | 34189 ft | 448 kts | 202° |
| 2026-04-21 14:19 | 34.92014 | 112.46023 | 34186 ft | 449 kts | 202° |
| 2026-04-21 14:19 | 34.86033 | 112.43828 | 34184 ft | 449 kts | 202° |
| 2026-04-21 14:20 | 34.80041 | 112.41635 | 34195 ft | 450 kts | 202° |
| 2026-04-21 14:20 | 34.73828 | 112.40170 | 34195 ft | 460 kts | 191° |
| 2026-04-21 14:21 | 34.67368 | 112.39987 | 34192 ft | 470 kts | 183° |
| 2026-04-21 14:21 | 34.60831 | 112.40571 | 34188 ft | 472 kts | 182° |
| 2026-04-21 14:22 | 34.54287 | 112.41193 | 34194 ft | 472 kts | 182° |
| 2026-04-21 14:22 | 34.47740 | 112.41780 | 34192 ft | 472 kts | 182° |
| 2026-04-21 14:23 | 34.41192 | 112.42344 | 34194 ft | 472 kts | 182° |
| 2026-04-21 14:23 | 34.34642 | 112.42902 | 34198 ft | 472 kts | 181° |
| 2026-04-21 14:24 | 34.28090 | 112.43461 | 34201 ft | 472 kts | 181° |
| 2026-04-21 14:24 | 34.21577 | 112.44015 | 34201 ft | 472 kts | 181° |
| 2026-04-21 14:25 | 34.15028 | 112.44573 | 34200 ft | 472 kts | 181° |
| 2026-04-21 14:25 | 34.08466 | 112.45132 | 34202 ft | 472 kts | 181° |
| 2026-04-21 14:26 | 34.01909 | 112.45689 | 34198 ft | 473 kts | 181° |
| 2026-04-21 14:26 | 33.95341 | 112.46246 | 34202 ft | 474 kts | 181° |
| 2026-04-21 14:27 | 33.88757 | 112.46803 | 34199 ft | 475 kts | 181° |
| 2026-04-21 14:27 | 33.82162 | 112.47360 | 34190 ft | 476 kts | 181° |
| 2026-04-21 14:28 | 33.75552 | 112.47919 | 34195 ft | 476 kts | 181° |
| 2026-04-21 14:28 | 33.68934 | 112.48477 | 34198 ft | 477 kts | 181° |
| 2026-04-21 14:29 | 33.62315 | 112.49035 | 34186 ft | 477 kts | 181° |
| 2026-04-21 14:29 | 33.55689 | 112.49598 | 34193 ft | 477 kts | 180° |
| 2026-04-21 14:30 | 33.49060 | 112.50161 | 34181 ft | 477 kts | 180° |
| 2026-04-21 14:30 | 33.42434 | 112.50724 | 34181 ft | 477 kts | 180° |
| 2026-04-21 14:31 | 33.35811 | 112.51285 | 34186 ft | 477 kts | 180° |
| 2026-04-21 14:31 | 33.29182 | 112.51845 | 34182 ft | 477 kts | 180° |
| 2026-04-21 14:32 | 33.23628 | 112.52314 | 34182 ft | 478 kts | 180° |
| 2026-04-21 14:32 | 33.17038 | 112.52870 | 34181 ft | 478 kts | 180° |
| 2026-04-21 14:33 | 33.10360 | 112.53433 | 34176 ft | 478 kts | 180° |
| 2026-04-21 14:33 | 33.03756 | 112.53988 | 34188 ft | 479 kts | 180° |
| 2026-04-21 14:34 | 32.97114 | 112.54542 | 34170 ft | 479 kts | 181° |
| 2026-04-21 14:34 | 32.90524 | 112.54177 | 34176 ft | 471 kts | 192° |
| 2026-04-21 14:35 | 32.84172 | 112.52474 | 34179 ft | 466 kts | 201° |
| 2026-04-21 14:35 | 32.77948 | 112.50264 | 34178 ft | 468 kts | 199° |
| 2026-04-21 14:36 | 32.71663 | 112.48227 | 34174 ft | 469 kts | 199° |
| 2026-04-21 14:36 | 32.65364 | 112.46216 | 34175 ft | 469 kts | 199° |
| 2026-04-21 14:37 | 32.59051 | 112.44181 | 34174 ft | 470 kts | 199° |
| 2026-04-21 14:37 | 32.52741 | 112.42138 | 34172 ft | 470 kts | 199° |
| 2026-04-21 14:38 | 32.46423 | 112.40093 | 34178 ft | 471 kts | 199° |
| 2026-04-21 14:38 | 32.40099 | 112.38050 | 34179 ft | 471 kts | 199° |
| 2026-04-21 14:39 | 32.33769 | 112.36009 | 34178 ft | 472 kts | 200° |
| 2026-04-21 14:39 | 32.27428 | 112.33967 | 34182 ft | 472 kts | 200° |
| 2026-04-21 14:40 | 32.21078 | 112.31925 | 34178 ft | 473 kts | 200° |
| 2026-04-21 14:40 | 32.14720 | 112.29883 | 34178 ft | 474 kts | 200° |
| 2026-04-21 14:41 | 32.08357 | 112.27848 | 34176 ft | 475 kts | 199° |
| 2026-04-21 14:41 | 32.01843 | 112.26354 | 34179 ft | 479 kts | 195° |
| 2026-04-21 14:42 | 31.95269 | 112.25060 | 34178 ft | 479 kts | 195° |
| 2026-04-21 14:42 | 31.88688 | 112.23748 | 34174 ft | 480 kts | 195° |
| 2026-04-21 14:43 | 31.82112 | 112.22416 | 34171 ft | 480 kts | 195° |
| 2026-04-21 14:43 | 31.75533 | 112.21079 | 34178 ft | 479 kts | 195° |
| 2026-04-21 14:44 | 31.68963 | 112.19747 | 34175 ft | 479 kts | 195° |
| 2026-04-21 14:44 | 31.62404 | 112.18420 | 34171 ft | 478 kts | 196° |
| 2026-04-21 14:45 | 31.55870 | 112.17100 | 34167 ft | 476 kts | 196° |
| 2026-04-21 14:45 | 31.49344 | 112.15783 | 34164 ft | 475 kts | 197° |
| 2026-04-21 14:46 | 31.42837 | 112.14471 | 34167 ft | 474 kts | 197° |
| 2026-04-21 14:46 | 31.36367 | 112.13083 | 34158 ft | 470 kts | 199° |
| 2026-04-21 14:47 | 31.29982 | 112.11488 | 34162 ft | 469 kts | 200° |
| 2026-04-21 14:47 | 31.23614 | 112.09886 | 34158 ft | 468 kts | 200° |
| 2026-04-21 14:48 | 31.17241 | 112.08315 | 34166 ft | 468 kts | 200° |
| 2026-04-21 14:48 | 31.10874 | 112.06763 | 34161 ft | 468 kts | 200° |
| 2026-04-21 14:49 | 31.04541 | 112.05224 | 34155 ft | 467 kts | 200° |
| 2026-04-21 14:49 | 30.98136 | 112.03669 | 34147 ft | 467 kts | 200° |
| 2026-04-21 14:50 | 30.92851 | 112.02387 | 34151 ft | 466 kts | 200° |
| 2026-04-21 14:50 | 30.85478 | 112.00600 | 34148 ft | 465 kts | 200° |
| 2026-04-21 14:51 | 30.79147 | 111.99067 | 34145 ft | 465 kts | 200° |
| 2026-04-21 14:51 | 30.72819 | 111.97537 | 34141 ft | 464 kts | 200° |
| 2026-04-21 14:52 | 30.66497 | 111.96010 | 34144 ft | 464 kts | 200° |
| 2026-04-21 14:52 | 30.60170 | 111.94486 | 34150 ft | 465 kts | 200° |
| 2026-04-21 14:53 | 30.53831 | 111.92961 | 34151 ft | 466 kts | 200° |
| 2026-04-21 14:53 | 30.47480 | 111.91434 | 34147 ft | 467 kts | 199° |
| 2026-04-21 14:54 | 30.41121 | 111.89908 | 34146 ft | 467 kts | 199° |
| 2026-04-21 14:54 | 30.34743 | 111.88379 | 34154 ft | 468 kts | 199° |
| 2026-04-21 14:55 | 30.28355 | 111.86850 | 34157 ft | 469 kts | 199° |
| 2026-04-21 14:55 | 30.21956 | 111.85320 | 34144 ft | 470 kts | 199° |
| 2026-04-21 14:56 | 30.15555 | 111.83792 | 34155 ft | 470 kts | 199° |
| 2026-04-21 14:56 | 30.09142 | 111.82263 | 34140 ft | 471 kts | 198° |
| 2026-04-21 14:57 | 30.02718 | 111.80734 | 34148 ft | 471 kts | 198° |
| 2026-04-21 14:57 | 29.96292 | 111.79206 | 34149 ft | 472 kts | 198° |
| 2026-04-21 14:58 | 29.89902 | 111.77688 | 34148 ft | 472 kts | 198° |
| 2026-04-21 14:58 | 29.83466 | 111.76162 | 34148 ft | 472 kts | 198° |
| 2026-04-21 14:59 | 29.77033 | 111.74639 | 34143 ft | 472 kts | 198° |
| 2026-04-21 14:59 | 29.70604 | 111.73118 | 34138 ft | 471 kts | 198° |
| 2026-04-21 15:00 | 29.64191 | 111.71603 | 34138 ft | 470 kts | 198° |
| 2026-04-21 15:00 | 29.57792 | 111.70094 | 34145 ft | 470 kts | 198° |
| 2026-04-21 15:01 | 29.51390 | 111.68585 | 34141 ft | 469 kts | 198° |
| 2026-04-21 15:01 | 29.45002 | 111.67081 | 34142 ft | 468 kts | 198° |
| 2026-04-21 15:02 | 29.38626 | 111.65582 | 34135 ft | 468 kts | 198° |
| 2026-04-21 15:02 | 29.32135 | 111.64540 | 34128 ft | 477 kts | 189° |
| 2026-04-21 15:03 | 29.25493 | 111.64243 | 34131 ft | 478 kts | 189° |
| 2026-04-21 15:03 | 29.18841 | 111.63944 | 34135 ft | 479 kts | 189° |
| 2026-04-21 15:04 | 29.12174 | 111.63610 | 34136 ft | 480 kts | 189° |
| 2026-04-21 15:04 | 29.05541 | 111.63266 | 34128 ft | 481 kts | 189° |
| 2026-04-21 15:05 | 28.98849 | 111.62920 | 34131 ft | 482 kts | 189° |
| 2026-04-21 15:05 | 28.88786 | 111.62404 | 34127 ft | 483 kts | 189° |
| 2026-04-21 15:06 | 28.82083 | 111.62012 | 34121 ft | 481 kts | 191° |
| 2026-04-21 15:06 | 28.75443 | 111.61262 | 34132 ft | 479 kts | 193° |
| 2026-04-21 15:07 | 28.68807 | 111.60451 | 34116 ft | 480 kts | 193° |
| 2026-04-21 15:07 | 28.62164 | 111.59698 | 34109 ft | 480 kts | 192° |
| 2026-04-21 15:08 | 28.55516 | 111.58971 | 34116 ft | 480 kts | 192° |
| 2026-04-21 15:08 | 28.48874 | 111.58245 | 34113 ft | 480 kts | 192° |
| 2026-04-21 15:09 | 28.42225 | 111.57515 | 34110 ft | 480 kts | 192° |
| 2026-04-21 15:09 | 28.35578 | 111.56808 | 34103 ft | 480 kts | 192° |
| 2026-04-21 15:10 | 28.28930 | 111.56110 | 34107 ft | 480 kts | 192° |
| 2026-04-21 15:10 | 28.22324 | 111.55415 | 34102 ft | 480 kts | 192° |
| 2026-04-21 15:11 | 28.15671 | 111.54713 | 34085 ft | 480 kts | 192° |
| 2026-04-21 15:11 | 28.09016 | 111.54011 | 34089 ft | 480 kts | 192° |
| 2026-04-21 15:12 | 28.02329 | 111.53308 | 34090 ft | 479 kts | 192° |
| 2026-04-21 15:12 | 27.95733 | 111.52616 | 34072 ft | 479 kts | 192° |
| 2026-04-21 15:13 | 27.89095 | 111.51918 | 34077 ft | 478 kts | 192° |
| 2026-04-21 15:13 | 27.82462 | 111.51223 | 34082 ft | 480 kts | 192° |
| 2026-04-21 15:14 | 27.75803 | 111.50525 | 34069 ft | 481 kts | 192° |
| 2026-04-21 15:14 | 27.69118 | 111.49825 | 34059 ft | 482 kts | 192° |
| 2026-04-21 15:15 | 27.62430 | 111.49127 | 34055 ft | 483 kts | 192° |
| 2026-04-21 15:15 | 27.55770 | 111.48432 | 34057 ft | 484 kts | 192° |
| 2026-04-21 15:16 | 27.49057 | 111.47733 | 34058 ft | 485 kts | 192° |
| 2026-04-21 15:16 | 27.42329 | 111.47033 | 34054 ft | 486 kts | 192° |
| 2026-04-21 15:17 | 27.35587 | 111.46331 | 34045 ft | 487 kts | 192° |
| 2026-04-21 15:17 | 27.28840 | 111.45631 | 34035 ft | 487 kts | 192° |
| 2026-04-21 15:18 | 27.22092 | 111.44932 | 34030 ft | 487 kts | 192° |
| 2026-04-21 15:18 | 27.15343 | 111.44232 | 34022 ft | 487 kts | 192° |
| 2026-04-21 15:19 | 27.09725 | 111.43651 | 34023 ft | 488 kts | 192° |
| 2026-04-21 15:19 | 27.02956 | 111.42951 | 34028 ft | 488 kts | 192° |
| 2026-04-21 15:20 | 26.95117 | 111.41989 | 34022 ft | 482 kts | 199° |
| 2026-04-21 15:20 | 26.89864 | 111.40050 | 34024 ft | 470 kts | 210° |
| 2026-04-21 15:21 | 26.84304 | 111.36444 | 34025 ft | 463 kts | 219° |
| 2026-04-21 15:21 | 26.78947 | 111.32424 | 34018 ft | 464 kts | 219° |
| 2026-04-21 15:22 | 26.73550 | 111.28432 | 34015 ft | 466 kts | 219° |
| 2026-04-21 15:22 | 26.68113 | 111.24458 | 34017 ft | 467 kts | 218° |
| 2026-04-21 15:23 | 26.62665 | 111.20484 | 34003 ft | 468 kts | 218° |
| 2026-04-21 15:23 | 26.57220 | 111.16526 | 34005 ft | 467 kts | 217° |
| 2026-04-21 15:24 | 26.51676 | 111.12715 | 34002 ft | 469 kts | 216° |
| 2026-04-21 15:24 | 26.46090 | 111.08954 | 33997 ft | 469 kts | 216° |
| 2026-04-21 15:25 | 26.40510 | 111.05177 | 34012 ft | 469 kts | 216° |
| 2026-04-21 15:25 | 26.34927 | 111.01381 | 34001 ft | 470 kts | 216° |
| 2026-04-21 15:26 | 26.29367 | 110.97601 | 34005 ft | 472 kts | 216° |
| 2026-04-21 15:26 | 26.23752 | 110.93788 | 33988 ft | 473 kts | 216° |
| 2026-04-21 15:27 | 26.18128 | 110.89976 | 34007 ft | 474 kts | 216° |
| 2026-04-21 15:27 | 26.12489 | 110.86158 | 33998 ft | 475 kts | 216° |
| 2026-04-21 15:28 | 26.06833 | 110.82331 | 33989 ft | 477 kts | 216° |
| 2026-04-21 15:28 | 26.01175 | 110.78496 | 33980 ft | 477 kts | 216° |
| 2026-04-21 15:29 | 25.95520 | 110.74650 | 33979 ft | 475 kts | 216° |
| 2026-04-21 15:29 | 25.89882 | 110.70819 | 33981 ft | 475 kts | 216° |
| 2026-04-21 15:30 | 25.84236 | 110.66989 | 33976 ft | 476 kts | 216° |
| 2026-04-21 15:30 | 25.78584 | 110.63159 | 33972 ft | 476 kts | 216° |
| 2026-04-21 15:31 | 25.72931 | 110.59320 | 33958 ft | 476 kts | 216° |
| 2026-04-21 15:31 | 25.67317 | 110.55416 | 33965 ft | 477 kts | 216° |
| 2026-04-21 15:32 | 25.61684 | 110.51498 | 33961 ft | 478 kts | 216° |
| 2026-04-21 15:32 | 25.56039 | 110.47589 | 33959 ft | 479 kts | 216° |
| 2026-04-21 15:33 | 25.50471 | 110.43525 | 33954 ft | 479 kts | 218° |
| 2026-04-21 15:33 | 25.44945 | 110.39403 | 33956 ft | 480 kts | 218° |
| 2026-04-21 15:34 | 25.39393 | 110.35297 | 33947 ft | 480 kts | 218° |
| 2026-04-21 15:34 | 25.33866 | 110.31167 | 33952 ft | 480 kts | 218° |
| 2026-04-21 15:35 | 25.28325 | 110.27029 | 33950 ft | 480 kts | 218° |
| 2026-04-21 15:35 | 25.22818 | 110.22926 | 33957 ft | 481 kts | 218° |
| 2026-04-21 15:36 | 25.17270 | 110.18796 | 33954 ft | 481 kts | 218° |
| 2026-04-21 15:36 | 25.11724 | 110.14654 | 33950 ft | 481 kts | 218° |
| 2026-04-21 15:37 | 25.06183 | 110.10517 | 33952 ft | 481 kts | 218° |
| 2026-04-21 15:37 | 25.00636 | 110.06382 | 33947 ft | 481 kts | 218° |
| 2026-04-21 15:38 | 24.95080 | 110.02245 | 33950 ft | 481 kts | 218° |
| 2026-04-21 15:38 | 24.89528 | 109.98118 | 33937 ft | 481 kts | 218° |
| 2026-04-21 15:39 | 24.83978 | 109.93995 | 33934 ft | 481 kts | 218° |
| 2026-04-21 15:39 | 24.78431 | 109.89879 | 33929 ft | 481 kts | 218° |
| 2026-04-21 15:40 | 24.72884 | 109.85766 | 33922 ft | 480 kts | 218° |
| 2026-04-21 15:40 | 24.67348 | 109.81667 | 33916 ft | 479 kts | 218° |
| 2026-04-21 15:41 | 24.61856 | 109.77597 | 33909 ft | 478 kts | 218° |
| 2026-04-21 15:41 | 24.56342 | 109.73506 | 33920 ft | 477 kts | 218° |
| 2026-04-21 15:42 | 24.50833 | 109.69424 | 33908 ft | 477 kts | 218° |
| 2026-04-21 15:42 | 24.45329 | 109.65349 | 33910 ft | 476 kts | 218° |
| 2026-04-21 15:43 | 24.39836 | 109.61289 | 33901 ft | 476 kts | 218° |
| 2026-04-21 15:43 | 24.34339 | 109.57235 | 33904 ft | 476 kts | 218° |
| 2026-04-21 15:44 | 24.28841 | 109.53188 | 33900 ft | 476 kts | 218° |
| 2026-04-21 15:44 | 24.23331 | 109.49134 | 33900 ft | 477 kts | 218° |
| 2026-04-21 15:45 | 24.17807 | 109.45075 | 33888 ft | 478 kts | 218° |
| 2026-04-21 15:45 | 24.12313 | 109.41042 | 33894 ft | 479 kts | 218° |
| 2026-04-21 15:46 | 24.06767 | 109.36974 | 33906 ft | 480 kts | 218° |
| 2026-04-21 15:46 | 24.01212 | 109.32903 | 33903 ft | 482 kts | 218° |
| 2026-04-21 15:47 | 23.95635 | 109.28821 | 33900 ft | 483 kts | 218° |
| 2026-04-21 15:47 | 23.90047 | 109.24736 | 33896 ft | 483 kts | 218° |
| 2026-04-21 15:48 | 23.84451 | 109.20648 | 33902 ft | 484 kts | 218° |
| 2026-04-21 15:48 | 23.78852 | 109.16561 | 33894 ft | 484 kts | 218° |
| 2026-04-21 15:49 | 23.73392 | 109.12295 | 33906 ft | 481 kts | 222° |
| 2026-04-21 15:49 | 23.68132 | 109.07774 | 33903 ft | 482 kts | 223° |
| 2026-04-21 15:50 | 23.62869 | 109.03241 | 33908 ft | 482 kts | 222° |
| 2026-04-21 15:50 | 23.57614 | 108.98747 | 33902 ft | 484 kts | 222° |
| 2026-04-21 15:51 | 23.52312 | 108.94232 | 33901 ft | 484 kts | 222° |
| 2026-04-21 15:51 | 23.46997 | 108.89712 | 33906 ft | 485 kts | 222° |
| 2026-04-21 15:52 | 23.41673 | 108.85186 | 33912 ft | 486 kts | 222° |
| 2026-04-21 15:52 | 23.36339 | 108.80656 | 33907 ft | 487 kts | 222° |
| 2026-04-21 15:53 | 23.30997 | 108.76123 | 33913 ft | 488 kts | 222° |
| 2026-04-21 15:53 | 23.25635 | 108.71578 | 33912 ft | 489 kts | 222° |
| 2026-04-21 15:54 | 23.20264 | 108.67027 | 33917 ft | 490 kts | 222° |
| 2026-04-21 15:54 | 23.14885 | 108.62465 | 33912 ft | 491 kts | 222° |
| 2026-04-21 15:55 | 23.09493 | 108.57898 | 33920 ft | 492 kts | 222° |
| 2026-04-21 15:55 | 23.04091 | 108.53322 | 33911 ft | 492 kts | 222° |
| 2026-04-21 15:56 | 22.98717 | 108.48777 | 33908 ft | 493 kts | 222° |
| 2026-04-21 15:56 | 22.93306 | 108.44207 | 33911 ft | 493 kts | 222° |
| 2026-04-21 15:57 | 22.87891 | 108.39639 | 33906 ft | 493 kts | 222° |
| 2026-04-21 15:57 | 22.82470 | 108.35069 | 33908 ft | 493 kts | 222° |
| 2026-04-21 15:58 | 22.77052 | 108.30507 | 33917 ft | 493 kts | 222° |
| 2026-04-21 15:58 | 22.71633 | 108.25947 | 33919 ft | 493 kts | 222° |
| 2026-04-21 15:59 | 22.66209 | 108.21388 | 33933 ft | 493 kts | 222° |
| 2026-04-21 15:59 | 22.61002 | 108.16622 | 33918 ft | 484 kts | 234° |
| 2026-04-21 16:00 | 22.59114 | 108.13650 | 33943 ft | 477 kts | 245° |
| 2026-04-21 16:00 | 22.57769 | 108.10397 | 33934 ft | 472 kts | 255° |
| 2026-04-21 16:00 | 22.56456 | 108.03503 | 33931 ft | 467 kts | 263° |
| 2026-04-21 16:01 | 22.55314 | 107.96563 | 33926 ft | 470 kts | 262° |
| 2026-04-21 16:01 | 22.54121 | 107.89647 | 33913 ft | 472 kts | 262° |
| 2026-04-21 16:02 | 22.52883 | 107.82672 | 33900 ft | 472 kts | 262° |
| 2026-04-21 16:02 | 22.51635 | 107.75689 | 33900 ft | 472 kts | 262° |
| 2026-04-21 16:03 | 22.50389 | 107.68719 | 33901 ft | 472 kts | 261° |
| 2026-04-21 16:03 | 22.49140 | 107.61746 | 33890 ft | 472 kts | 261° |
| 2026-04-21 16:04 | 22.47890 | 107.54784 | 33897 ft | 471 kts | 261° |
| 2026-04-21 16:04 | 22.46639 | 107.47831 | 33896 ft | 471 kts | 261° |
| 2026-04-21 16:05 | 22.45394 | 107.40928 | 33905 ft | 471 kts | 261° |
| 2026-04-21 16:05 | 22.44139 | 107.33989 | 33901 ft | 470 kts | 262° |
| 2026-04-21 16:06 | 22.42880 | 107.27041 | 33900 ft | 470 kts | 262° |
| 2026-04-21 16:06 | 22.41634 | 107.20109 | 33906 ft | 470 kts | 262° |
| 2026-04-21 16:07 | 22.40409 | 107.13179 | 33904 ft | 470 kts | 262° |
| 2026-04-21 16:07 | 22.39387 | 107.07418 | 33906 ft | 469 kts | 262° |
| 2026-04-21 16:08 | 22.37534 | 106.97036 | 33913 ft | 468 kts | 262° |
| 2026-04-21 16:09 | 22.36077 | 106.90188 | 33910 ft | 471 kts | 252° |
| 2026-04-21 16:09 | 22.32895 | 106.83953 | 33926 ft | 479 kts | 237° |
| 2026-04-21 16:10 | 22.28242 | 106.78706 | 33919 ft | 486 kts | 228° |
| 2026-04-21 16:10 | 22.23329 | 106.73676 | 33921 ft | 486 kts | 229° |
| 2026-04-21 16:11 | 22.18530 | 106.68604 | 33917 ft | 486 kts | 229° |
| 2026-04-21 16:11 | 22.13398 | 106.63807 | 33878 ft | 487 kts | 223° |
| 2026-04-21 16:11 | 22.10752 | 106.61528 | 33588 ft | 487 kts | 223° |
| 2026-04-21 16:12 | 22.08099 | 106.59244 | 33156 ft | 490 kts | 223° |
| 2026-04-21 16:12 | 22.05438 | 106.56938 | 32759 ft | 491 kts | 223° |
| 2026-04-21 16:12 | 22.02780 | 106.54621 | 32384 ft | 492 kts | 223° |
| 2026-04-21 16:12 | 22.00126 | 106.52298 | 32025 ft | 492 kts | 223° |
| 2026-04-21 16:13 | 21.97468 | 106.49973 | 31831 ft | 492 kts | 223° |
| 2026-04-21 16:13 | 21.92149 | 106.45314 | 31833 ft | 493 kts | 223° |
| 2026-04-21 16:14 | 21.86844 | 106.40660 | 31828 ft | 491 kts | 223° |
| 2026-04-21 16:14 | 21.81557 | 106.36020 | 31831 ft | 491 kts | 223° |
| 2026-04-21 16:15 | 21.76259 | 106.31379 | 31829 ft | 490 kts | 223° |
| 2026-04-21 16:15 | 21.70996 | 106.26773 | 31823 ft | 491 kts | 223° |
| 2026-04-21 16:16 | 21.65695 | 106.22140 | 31825 ft | 491 kts | 223° |
| 2026-04-21 16:16 | 21.60388 | 106.17506 | 31822 ft | 491 kts | 223° |
| 2026-04-21 16:17 | 21.55083 | 106.12874 | 31822 ft | 492 kts | 223° |
| 2026-04-21 16:17 | 21.49765 | 106.08238 | 31809 ft | 493 kts | 223° |
| 2026-04-21 16:18 | 21.44441 | 106.03603 | 31806 ft | 493 kts | 223° |
| 2026-04-21 16:18 | 21.39113 | 105.98968 | 31801 ft | 493 kts | 223° |
| 2026-04-21 16:19 | 21.33781 | 105.94333 | 31802 ft | 493 kts | 223° |
| 2026-04-21 16:19 | 21.28442 | 105.89696 | 31799 ft | 493 kts | 223° |
| 2026-04-21 16:20 | 21.23342 | 105.84829 | 31799 ft | 487 kts | 233° |
| 2026-04-21 16:20 | 21.19683 | 105.78806 | 31803 ft | 480 kts | 247° |
| 2026-04-21 16:21 | 21.17374 | 105.72179 | 31802 ft | 478 kts | 253° |
| 2026-04-21 16:21 | 21.15190 | 105.65434 | 31798 ft | 479 kts | 253° |
| 2026-04-21 16:22 | 21.12964 | 105.58703 | 31793 ft | 480 kts | 253° |
| 2026-04-21 16:22 | 21.10699 | 105.51968 | 31790 ft | 480 kts | 252° |
| 2026-04-21 16:23 | 21.08426 | 105.45243 | 31787 ft | 480 kts | 253° |
| 2026-04-21 16:23 | 21.06153 | 105.38527 | 31784 ft | 480 kts | 253° |
| 2026-04-21 16:24 | 21.03881 | 105.31823 | 31785 ft | 479 kts | 253° |
| 2026-04-21 16:24 | 21.01611 | 105.25120 | 31794 ft | 478 kts | 253° |
| 2026-04-21 16:25 | 20.99356 | 105.18477 | 31793 ft | 478 kts | 253° |
| 2026-04-21 16:25 | 20.97067 | 105.11746 | 31807 ft | 478 kts | 252° |
| 2026-04-21 16:26 | 20.94789 | 105.05057 | 31807 ft | 478 kts | 252° |
| 2026-04-21 16:26 | 20.92506 | 104.98362 | 31813 ft | 479 kts | 252° |
| 2026-04-21 16:27 | 20.90223 | 104.91678 | 31800 ft | 477 kts | 253° |
| 2026-04-21 16:27 | 20.87969 | 104.85084 | 31814 ft | 474 kts | 253° |
| 2026-04-21 16:28 | 20.85709 | 104.78480 | 31825 ft | 472 kts | 253° |
| 2026-04-21 16:28 | 20.83015 | 104.72101 | 31834 ft | 476 kts | 240° |
| 2026-04-21 16:29 | 20.78661 | 104.66692 | 31832 ft | 487 kts | 225° |
| 2026-04-21 16:29 | 20.73158 | 104.62379 | 31839 ft | 492 kts | 219° |
| 2026-04-21 16:30 | 20.67548 | 104.58188 | 31857 ft | 492 kts | 220° |
| 2026-04-21 16:30 | 20.61975 | 104.53937 | 31847 ft | 493 kts | 220° |
| 2026-04-21 16:31 | 20.56418 | 104.49651 | 31860 ft | 494 kts | 220° |
| 2026-04-21 16:31 | 20.50883 | 104.45381 | 31861 ft | 494 kts | 220° |
| 2026-04-21 16:32 | 20.45304 | 104.41088 | 31878 ft | 494 kts | 220° |
| 2026-04-21 16:32 | 20.39742 | 104.36781 | 31875 ft | 494 kts | 220° |
| 2026-04-21 16:33 | 20.34219 | 104.32438 | 31882 ft | 493 kts | 220° |
| 2026-04-21 16:33 | 20.28699 | 104.28089 | 31886 ft | 494 kts | 220° |
| 2026-04-21 16:34 | 20.23172 | 104.23750 | 31883 ft | 494 kts | 220° |
| 2026-04-21 16:34 | 20.17633 | 104.19415 | 31903 ft | 493 kts | 220° |
| 2026-04-21 16:35 | 20.12145 | 104.15121 | 31899 ft | 493 kts | 220° |
| 2026-04-21 16:35 | 20.06575 | 104.10765 | 31901 ft | 494 kts | 220° |
| 2026-04-21 16:36 | 20.01066 | 104.06463 | 31912 ft | 494 kts | 220° |
| 2026-04-21 16:36 | 19.95515 | 104.02131 | 31895 ft | 495 kts | 220° |
| 2026-04-21 16:37 | 19.89964 | 103.97803 | 31925 ft | 494 kts | 220° |
| 2026-04-21 16:37 | 19.84405 | 103.93471 | 31903 ft | 495 kts | 220° |
| 2026-04-21 16:38 | 19.78890 | 103.89180 | 31900 ft | 494 kts | 219° |
| 2026-04-21 16:38 | 19.73348 | 103.84870 | 31897 ft | 494 kts | 220° |
| 2026-04-21 16:39 | 19.67805 | 103.80563 | 31896 ft | 493 kts | 220° |
| 2026-04-21 16:39 | 19.62267 | 103.76264 | 31913 ft | 494 kts | 220° |
| 2026-04-21 16:40 | 19.56708 | 103.71952 | 31920 ft | 495 kts | 219° |
| 2026-04-21 16:40 | 19.51143 | 103.67639 | 31921 ft | 496 kts | 219° |
| 2026-04-21 16:41 | 19.46502 | 103.64043 | 31910 ft | 496 kts | 219° |
| 2026-04-21 16:41 | 19.39986 | 103.59014 | 31924 ft | 496 kts | 219° |
| 2026-04-21 16:42 | 19.34386 | 103.54745 | 31925 ft | 496 kts | 219° |
| 2026-04-21 16:42 | 19.28774 | 103.50476 | 31927 ft | 496 kts | 219° |
| 2026-04-21 16:43 | 19.23181 | 103.46219 | 31919 ft | 496 kts | 219° |
| 2026-04-21 16:43 | 19.17575 | 103.41952 | 31918 ft | 496 kts | 219° |
| 2026-04-21 16:44 | 19.11968 | 103.37686 | 31922 ft | 496 kts | 219° |
| 2026-04-21 16:44 | 19.06362 | 103.33425 | 31913 ft | 497 kts | 219° |
| 2026-04-21 16:45 | 19.00747 | 103.29161 | 31913 ft | 497 kts | 219° |
| 2026-04-21 16:45 | 18.95155 | 103.24918 | 31906 ft | 497 kts | 219° |
| 2026-04-21 16:46 | 18.89543 | 103.20664 | 31910 ft | 497 kts | 219° |
| 2026-04-21 16:46 | 18.83925 | 103.16409 | 31905 ft | 497 kts | 218° |
| 2026-04-21 16:47 | 18.78303 | 103.12153 | 31905 ft | 497 kts | 218° |
| 2026-04-21 16:47 | 18.72674 | 103.07898 | 31890 ft | 498 kts | 218° |
| 2026-04-21 16:48 | 18.67041 | 103.03640 | 31875 ft | 497 kts | 218° |
| 2026-04-21 16:48 | 18.61415 | 102.99392 | 31874 ft | 498 kts | 218° |
| 2026-04-21 16:49 | 18.55784 | 102.95148 | 31861 ft | 498 kts | 218° |
| 2026-04-21 16:49 | 18.50147 | 102.90899 | 31854 ft | 498 kts | 218° |
| 2026-04-21 16:50 | 18.44504 | 102.86649 | 31844 ft | 498 kts | 218° |
| 2026-04-21 16:50 | 18.38896 | 102.82430 | 31833 ft | 499 kts | 218° |
| 2026-04-21 16:51 | 18.33247 | 102.78182 | 31829 ft | 499 kts | 218° |
| 2026-04-21 16:51 | 18.27595 | 102.73937 | 31811 ft | 499 kts | 218° |
| 2026-04-21 16:52 | 18.22900 | 102.70412 | 31787 ft | 499 kts | 218° |
| 2026-04-21 16:52 | 18.17256 | 102.66178 | 31762 ft | 499 kts | 218° |
| 2026-04-21 16:53 | 18.10649 | 102.61226 | 31733 ft | 499 kts | 218° |
| 2026-04-21 16:53 | 18.05035 | 102.57021 | 31718 ft | 499 kts | 218° |
| 2026-04-21 16:54 | 17.99082 | 102.53228 | 31730 ft | 504 kts | 209° |
| 2026-04-21 16:54 | 17.92530 | 102.50471 | 31725 ft | 509 kts | 203° |
| 2026-04-21 16:55 | 17.85899 | 102.47844 | 31740 ft | 510 kts | 204° |
| 2026-04-21 16:55 | 17.79276 | 102.45152 | 31766 ft | 511 kts | 204° |
| 2026-04-21 16:56 | 17.73748 | 102.42929 | 31785 ft | 511 kts | 204° |
| 2026-04-21 16:56 | 17.67102 | 102.40265 | 31811 ft | 511 kts | 204° |
| 2026-04-21 16:57 | 17.60459 | 102.37600 | 31816 ft | 511 kts | 204° |
| 2026-04-21 16:57 | 17.53815 | 102.34936 | 31812 ft | 511 kts | 204° |
| 2026-04-21 16:58 | 17.47177 | 102.32274 | 31814 ft | 511 kts | 204° |
| 2026-04-21 16:58 | 17.40538 | 102.29614 | 31824 ft | 511 kts | 204° |
| 2026-04-21 16:59 | 17.33894 | 102.26954 | 31823 ft | 511 kts | 204° |
| 2026-04-21 16:59 | 17.27296 | 102.24316 | 31818 ft | 511 kts | 204° |
| 2026-04-21 17:00 | 17.20640 | 102.21656 | 31823 ft | 512 kts | 204° |
| 2026-04-21 17:00 | 17.15063 | 102.19428 | 31826 ft | 512 kts | 204° |
| 2026-04-21 17:01 | 17.07321 | 102.16339 | 31830 ft | 512 kts | 204° |
| 2026-04-21 17:01 | 17.00656 | 102.13681 | 31828 ft | 513 kts | 204° |
| 2026-04-21 17:02 | 16.93987 | 102.11024 | 31831 ft | 513 kts | 204° |
| 2026-04-21 17:02 | 16.87310 | 102.08365 | 31836 ft | 513 kts | 204° |
| 2026-04-21 17:03 | 16.80633 | 102.05709 | 31842 ft | 513 kts | 204° |
| 2026-04-21 17:03 | 16.73955 | 102.03054 | 31843 ft | 514 kts | 204° |
| 2026-04-21 17:04 | 16.67271 | 102.00398 | 31850 ft | 513 kts | 203° |
| 2026-04-21 17:04 | 16.60724 | 101.97567 | 31855 ft | 511 kts | 208° |
| 2026-04-21 17:05 | 16.54354 | 101.94280 | 31862 ft | 511 kts | 209° |
| 2026-04-21 17:05 | 16.47996 | 101.90964 | 31861 ft | 511 kts | 209° |
| 2026-04-21 17:06 | 16.41622 | 101.87673 | 31868 ft | 511 kts | 209° |
| 2026-04-21 17:06 | 16.35233 | 101.84398 | 31872 ft | 512 kts | 208° |
| 2026-04-21 17:07 | 16.28844 | 101.81130 | 31875 ft | 512 kts | 208° |
| 2026-04-21 17:07 | 16.22442 | 101.77856 | 31871 ft | 512 kts | 208° |
| 2026-04-21 17:08 | 16.16052 | 101.74589 | 31872 ft | 512 kts | 208° |
| 2026-04-21 17:08 | 16.09651 | 101.71320 | 31867 ft | 512 kts | 208° |
| 2026-04-21 17:09 | 16.00093 | 101.66441 | 31866 ft | 512 kts | 208° |
| 2026-04-21 17:09 | 15.93689 | 101.63175 | 31857 ft | 512 kts | 208° |
| 2026-04-21 17:10 | 15.87280 | 101.59909 | 31859 ft | 512 kts | 208° |
| 2026-04-21 17:10 | 15.80878 | 101.56649 | 31852 ft | 512 kts | 208° |
| 2026-04-21 17:11 | 15.74474 | 101.53389 | 31853 ft | 513 kts | 208° |
| 2026-04-21 17:11 | 15.68098 | 101.50147 | 31847 ft | 513 kts | 208° |
| 2026-04-21 17:12 | 15.61693 | 101.46892 | 31854 ft | 513 kts | 208° |
| 2026-04-21 17:12 | 15.55268 | 101.43629 | 31844 ft | 513 kts | 208° |
| 2026-04-21 17:13 | 15.48854 | 101.40374 | 31840 ft | 513 kts | 208° |
| 2026-04-21 17:13 | 15.42443 | 101.37123 | 31846 ft | 513 kts | 208° |
| 2026-04-21 17:14 | 15.36033 | 101.33875 | 31846 ft | 513 kts | 208° |
| 2026-04-21 17:14 | 15.29662 | 101.30649 | 31839 ft | 512 kts | 208° |
| 2026-04-21 17:15 | 15.23253 | 101.27405 | 31836 ft | 512 kts | 208° |
| 2026-04-21 17:15 | 15.16849 | 101.24166 | 31843 ft | 513 kts | 207° |
| 2026-04-21 17:16 | 15.10432 | 101.20923 | 31840 ft | 513 kts | 207° |
| 2026-04-21 17:16 | 15.04022 | 101.17686 | 31840 ft | 513 kts | 207° |
| 2026-04-21 17:17 | 14.97612 | 101.14450 | 31842 ft | 513 kts | 207° |
| 2026-04-21 17:17 | 14.91203 | 101.11217 | 31845 ft | 512 kts | 207° |
| 2026-04-21 17:18 | 14.84791 | 101.07985 | 31844 ft | 512 kts | 207° |
| 2026-04-21 17:18 | 14.78386 | 101.04758 | 31848 ft | 512 kts | 207° |
| 2026-04-21 17:19 | 14.72018 | 101.01547 | 31851 ft | 512 kts | 207° |
| 2026-04-21 17:19 | 14.65630 | 100.98294 | 31844 ft | 511 kts | 207° |
| 2026-04-21 17:20 | 14.59266 | 100.95047 | 31847 ft | 509 kts | 207° |
| 2026-04-21 17:20 | 14.52925 | 100.91817 | 31847 ft | 508 kts | 207° |
| 2026-04-21 17:21 | 14.46592 | 100.88597 | 31844 ft | 507 kts | 207° |
| 2026-04-21 17:21 | 14.40262 | 100.85380 | 31845 ft | 507 kts | 207° |
| 2026-04-21 17:22 | 14.33935 | 100.82166 | 31843 ft | 507 kts | 207° |
| 2026-04-21 17:22 | 14.27594 | 100.78948 | 31843 ft | 508 kts | 207° |
| 2026-04-21 17:23 | 14.21243 | 100.75726 | 31841 ft | 509 kts | 207° |
| 2026-04-21 17:23 | 14.14889 | 100.72505 | 31845 ft | 509 kts | 207° |
| 2026-04-21 17:24 | 14.12385 | 100.71236 | 31848 ft | 509 kts | 207° |
| 2026-04-21 17:24 | 14.06021 | 100.68012 | 31851 ft | 510 kts | 207° |
| 2026-04-21 17:25 | 13.99698 | 100.64810 | 31861 ft | 510 kts | 207° |
| 2026-04-21 17:25 | 13.93332 | 100.61589 | 31861 ft | 510 kts | 207° |
| 2026-04-21 17:26 | 13.86808 | 100.58717 | 31853 ft | 511 kts | 198° |
| 2026-04-21 17:26 | 13.79970 | 100.56698 | 31860 ft | 511 kts | 196° |
| 2026-04-21 17:27 | 13.73107 | 100.54720 | 31849 ft | 512 kts | 197° |
| 2026-04-21 17:27 | 13.66253 | 100.52698 | 31853 ft | 512 kts | 197° |
| 2026-04-21 17:28 | 13.59440 | 100.50663 | 31842 ft | 513 kts | 197° |
| 2026-04-21 17:28 | 13.52581 | 100.48614 | 31844 ft | 514 kts | 197° |
| 2026-04-21 17:29 | 13.45705 | 100.46564 | 31842 ft | 515 kts | 197° |
| 2026-04-21 17:29 | 13.38810 | 100.44511 | 31836 ft | 516 kts | 197° |
| 2026-04-21 17:30 | 13.31906 | 100.42457 | 31839 ft | 517 kts | 197° |
| 2026-04-21 17:30 | 13.24991 | 100.40400 | 31841 ft | 517 kts | 197° |
| 2026-04-21 17:31 | 13.18439 | 100.37414 | 31843 ft | 516 kts | 213° |
| 2026-04-21 17:31 | 13.12946 | 100.32816 | 31843 ft | 513 kts | 227° |
| 2026-04-21 17:32 | 13.08050 | 100.27502 | 31844 ft | 512 kts | 227° |
| 2026-04-21 17:32 | 13.03108 | 100.22244 | 31838 ft | 511 kts | 226° |
| 2026-04-21 17:33 | 12.98121 | 100.17038 | 31842 ft | 511 kts | 226° |
| 2026-04-21 17:33 | 12.93130 | 100.11852 | 31841 ft | 511 kts | 226° |
| 2026-04-21 17:34 | 12.88137 | 100.06663 | 31847 ft | 512 kts | 226° |
| 2026-04-21 17:34 | 12.83131 | 100.01460 | 31843 ft | 513 kts | 226° |
| 2026-04-21 17:35 | 12.78123 | 99.96257 | 31847 ft | 513 kts | 225° |
| 2026-04-21 17:35 | 12.73142 | 99.91084 | 31847 ft | 513 kts | 225° |
| 2026-04-21 17:36 | 12.68130 | 99.85883 | 31852 ft | 513 kts | 225° |
| 2026-04-21 17:36 | 12.63112 | 99.80679 | 31860 ft | 511 kts | 225° |
| 2026-04-21 17:37 | 12.60403 | 99.78354 | 31852 ft | 510 kts | 212° |
| 2026-04-21 17:37 | 12.57219 | 99.76766 | 31868 ft | 510 kts | 199° |
| 2026-04-21 17:37 | 12.50242 | 99.75801 | 31872 ft | 507 kts | 178° |
| 2026-04-21 17:38 | 12.43163 | 99.75945 | 31870 ft | 510 kts | 178° |
| 2026-04-21 17:38 | 12.36047 | 99.76029 | 31868 ft | 513 kts | 179° |
| 2026-04-21 17:39 | 12.28949 | 99.76048 | 31875 ft | 513 kts | 179° |
| 2026-04-21 17:39 | 12.21813 | 99.76048 | 31876 ft | 513 kts | 179° |
| 2026-04-21 17:40 | 12.14682 | 99.76052 | 31868 ft | 512 kts | 179° |
| 2026-04-21 17:40 | 12.07573 | 99.76059 | 31873 ft | 510 kts | 179° |
| 2026-04-21 17:41 | 12.00476 | 99.76068 | 31873 ft | 509 kts | 179° |
| 2026-04-21 17:41 | 11.93388 | 99.76076 | 31873 ft | 509 kts | 179° |
| 2026-04-21 17:42 | 11.86309 | 99.76084 | 31871 ft | 509 kts | 179° |
| 2026-04-21 17:42 | 11.79225 | 99.76093 | 31873 ft | 509 kts | 179° |
| 2026-04-21 17:43 | 11.73348 | 99.76099 | 31876 ft | 509 kts | 179° |
| 2026-04-21 17:43 | 11.66262 | 99.76110 | 31873 ft | 509 kts | 179° |
| 2026-04-21 17:44 | 11.59182 | 99.76122 | 31869 ft | 509 kts | 179° |
| 2026-04-21 17:44 | 11.52081 | 99.76135 | 31868 ft | 509 kts | 179° |
| 2026-04-21 17:45 | 11.45042 | 99.76147 | 31874 ft | 509 kts | 179° |
| 2026-04-21 17:45 | 11.37959 | 99.76159 | 31866 ft | 509 kts | 179° |
| 2026-04-21 17:46 | 11.30867 | 99.76171 | 31870 ft | 509 kts | 179° |
| 2026-04-21 17:46 | 11.23781 | 99.76184 | 31867 ft | 509 kts | 179° |
| 2026-04-21 17:47 | 11.16698 | 99.76084 | 31873 ft | 510 kts | 184° |
| 2026-04-21 17:47 | 11.09741 | 99.74900 | 31868 ft | 512 kts | 194° |
| 2026-04-21 17:48 | 11.02925 | 99.72764 | 31876 ft | 512 kts | 196° |
| 2026-04-21 17:48 | 10.96137 | 99.70567 | 31868 ft | 512 kts | 196° |
| 2026-04-21 17:49 | 10.89333 | 99.68404 | 31869 ft | 512 kts | 196° |
| 2026-04-21 17:49 | 10.82519 | 99.66268 | 31873 ft | 512 kts | 196° |
| 2026-04-21 17:50 | 10.75706 | 99.64140 | 31874 ft | 512 kts | 195° |
| 2026-04-21 17:50 | 10.68892 | 99.62010 | 31871 ft | 512 kts | 195° |
| 2026-04-21 17:51 | 10.62129 | 99.59896 | 31870 ft | 512 kts | 195° |
| 2026-04-21 17:51 | 10.55323 | 99.57769 | 31871 ft | 512 kts | 195° |
| 2026-04-21 17:52 | 10.48519 | 99.55643 | 31874 ft | 511 kts | 195° |
| 2026-04-21 17:52 | 10.41722 | 99.53520 | 31870 ft | 511 kts | 195° |
| 2026-04-21 17:53 | 10.34921 | 99.51398 | 31873 ft | 511 kts | 195° |
| 2026-04-21 17:53 | 10.28121 | 99.49276 | 31869 ft | 511 kts | 195° |
| 2026-04-21 17:54 | 10.21321 | 99.47156 | 31872 ft | 511 kts | 195° |
| 2026-04-21 17:54 | 10.14573 | 99.45052 | 31872 ft | 511 kts | 195° |
| 2026-04-21 17:55 | 10.07772 | 99.42933 | 31876 ft | 511 kts | 195° |
| 2026-04-21 17:55 | 10.00969 | 99.40815 | 31874 ft | 511 kts | 195° |
| 2026-04-21 17:56 | 9.94162 | 99.38696 | 31874 ft | 511 kts | 195° |
| 2026-04-21 17:56 | 9.87359 | 99.36579 | 31874 ft | 511 kts | 195° |
| 2026-04-21 17:57 | 9.80557 | 99.34464 | 31876 ft | 511 kts | 195° |
| 2026-04-21 17:57 | 9.73797 | 99.32362 | 31874 ft | 511 kts | 195° |
| 2026-04-21 17:58 | 9.66987 | 99.30245 | 31871 ft | 512 kts | 195° |
| 2026-04-21 17:58 | 9.60177 | 99.28130 | 31872 ft | 512 kts | 195° |
| 2026-04-21 17:59 | 9.53357 | 99.26012 | 31841 ft | 512 kts | 195° |
| 2026-04-21 17:59 | 9.49970 | 99.24960 | 31662 ft | 505 kts | 195° |
| 2026-04-21 17:59 | 9.46680 | 99.23938 | 31132 ft | 483 kts | 195° |
| 2026-04-21 18:00 | 9.43505 | 99.22951 | 29689 ft | 477 kts | 195° |
| 2026-04-21 18:00 | 9.40325 | 99.21966 | 28055 ft | 476 kts | 195° |
| 2026-04-21 18:00 | 9.37251 | 99.21013 | 27651 ft | 455 kts | 195° |
| 2026-04-21 18:00 | 9.34222 | 99.20074 | 27037 ft | 456 kts | 195° |
| 2026-04-21 18:01 | 9.31178 | 99.19132 | 26467 ft | 461 kts | 195° |
| 2026-04-21 18:01 | 9.28072 | 99.18172 | 25852 ft | 473 kts | 195° |
| 2026-04-21 18:01 | 9.24939 | 99.17201 | 25221 ft | 478 kts | 195° |
| 2026-04-21 18:01 | 9.21715 | 99.16201 | 24569 ft | 477 kts | 195° |
| 2026-04-21 18:02 | 9.18594 | 99.15233 | 23945 ft | 475 kts | 195° |
| 2026-04-21 18:02 | 9.15452 | 99.14107 | 23272 ft | 473 kts | 202° |
| 2026-04-21 18:02 | 9.12550 | 99.12648 | 22580 ft | 471 kts | 208° |
| 2026-04-21 18:02 | 9.09777 | 99.10906 | 21947 ft | 467 kts | 214° |
| 2026-04-21 18:03 | 9.07227 | 99.08903 | 21340 ft | 463 kts | 218° |
| 2026-04-21 18:03 | 9.04748 | 99.06842 | 20744 ft | 458 kts | 219° |
| 2026-04-21 18:03 | 9.02300 | 99.04795 | 20145 ft | 454 kts | 219° |
| 2026-04-21 18:03 | 8.99866 | 99.02769 | 19541 ft | 451 kts | 219° |
| 2026-04-21 18:04 | 8.97450 | 99.00774 | 18935 ft | 441 kts | 218° |
| 2026-04-21 18:04 | 8.95114 | 98.98855 | 18359 ft | 424 kts | 218° |
| 2026-04-21 18:04 | 8.92861 | 98.97010 | 17757 ft | 409 kts | 218° |
| 2026-04-21 18:04 | 8.90694 | 98.95238 | 17173 ft | 394 kts | 218° |
| 2026-04-21 18:05 | 8.88589 | 98.93516 | 16650 ft | 383 kts | 218° |
| 2026-04-21 18:05 | 8.86501 | 98.91810 | 16147 ft | 390 kts | 218° |
| 2026-04-21 18:05 | 8.84359 | 98.90058 | 15640 ft | 404 kts | 219° |
| 2026-04-21 18:05 | 8.82144 | 98.88248 | 15080 ft | 411 kts | 219° |
| 2026-04-21 18:06 | 8.79938 | 98.86445 | 14502 ft | 401 kts | 219° |
| 2026-04-21 18:06 | 8.77805 | 98.84711 | 13957 ft | 385 kts | 219° |
| 2026-04-21 18:06 | 8.75757 | 98.83050 | 13410 ft | 371 kts | 219° |
| 2026-04-21 18:06 | 8.73770 | 98.81441 | 12882 ft | 361 kts | 218° |
| 2026-04-21 18:07 | 8.71826 | 98.79866 | 12390 ft | 357 kts | 218° |
| 2026-04-21 18:07 | 8.69889 | 98.78297 | 11914 ft | 371 kts | 218° |
| 2026-04-21 18:07 | 8.67826 | 98.76625 | 11400 ft | 387 kts | 219° |
| 2026-04-21 18:07 | 8.65714 | 98.74913 | 10985 ft | 386 kts | 219° |
| 2026-04-21 18:08 | 8.63725 | 98.73300 | 10868 ft | 348 kts | 219° |
| 2026-04-21 18:08 | 8.61922 | 98.71838 | 10737 ft | 316 kts | 219° |
| 2026-04-21 18:08 | 8.60278 | 98.70506 | 10603 ft | 289 kts | 218° |
| 2026-04-21 18:08 | 8.58774 | 98.69286 | 10498 ft | 269 kts | 218° |
| 2026-04-21 18:09 | 8.57285 | 98.68080 | 10457 ft | 282 kts | 218° |
| 2026-04-21 18:09 | 8.55722 | 98.66813 | 10345 ft | 292 kts | 218° |
| 2026-04-21 18:09 | 8.54142 | 98.65533 | 10212 ft | 289 kts | 218° |
| 2026-04-21 18:09 | 8.52586 | 98.64273 | 10078 ft | 282 kts | 219° |
| 2026-04-21 18:10 | 8.51065 | 98.63042 | 9789 ft | 279 kts | 218° |
| 2026-04-21 18:10 | 8.49409 | 98.62088 | 9461 ft | 273 kts | 198° |
| 2026-04-21 18:10 | 8.47600 | 98.61525 | 9162 ft | 273 kts | 196° |
| 2026-04-21 18:10 | 8.45759 | 98.60973 | 8863 ft | 279 kts | 196° |
| 2026-04-21 18:11 | 8.43909 | 98.60415 | 8536 ft | 283 kts | 196° |
| 2026-04-21 18:11 | 8.42016 | 98.59837 | 8209 ft | 284 kts | 197° |
| 2026-04-21 18:11 | 8.40125 | 98.59254 | 7881 ft | 284 kts | 197° |
| 2026-04-21 18:11 | 8.38240 | 98.58670 | 7553 ft | 283 kts | 197° |
| 2026-04-21 18:12 | 8.36356 | 98.58082 | 7223 ft | 283 kts | 197° |
| 2026-04-21 18:12 | 8.34469 | 98.57492 | 6906 ft | 283 kts | 197° |
| 2026-04-21 18:12 | 8.32588 | 98.56903 | 6577 ft | 283 kts | 197° |
| 2026-04-21 18:12 | 8.30699 | 98.56311 | 6234 ft | 284 kts | 197° |
| 2026-04-21 18:13 | 8.28816 | 98.55720 | 5889 ft | 284 kts | 197° |
| 2026-04-21 18:13 | 8.26925 | 98.55126 | 5560 ft | 284 kts | 197° |
| 2026-04-21 18:13 | 8.25043 | 98.54535 | 5260 ft | 282 kts | 197° |
| 2026-04-21 18:13 | 8.23170 | 98.53947 | 4957 ft | 281 kts | 197° |
| 2026-04-21 18:14 | 8.19457 | 98.52781 | 4307 ft | 274 kts | 197° |
| 2026-04-21 18:14 | 8.17671 | 98.52220 | 3930 ft | 264 kts | 197° |
| 2026-04-21 18:14 | 8.15968 | 98.51686 | 3751 ft | 246 kts | 197° |
| 2026-04-21 18:15 | 8.14375 | 98.51174 | 3586 ft | 237 kts | 202° |
| 2026-04-21 18:15 | 8.13061 | 98.50203 | 3372 ft | 238 kts | 237° |
| 2026-04-21 18:15 | 8.12545 | 98.48641 | 3197 ft | 235 kts | 265° |
| 2026-04-21 18:15 | 8.12438 | 98.46983 | 2986 ft | 239 kts | 266° |
| 2026-04-21 18:16 | 8.12327 | 98.45295 | 2684 ft | 243 kts | 266° |
| 2026-04-21 18:16 | 8.12217 | 98.43594 | 2285 ft | 241 kts | 266° |
| 2026-04-21 18:16 | 8.12109 | 98.41959 | 2029 ft | 224 kts | 266° |
| 2026-04-21 18:16 | 8.12008 | 98.40480 | 1977 ft | 203 kts | 266° |
| 2026-04-21 18:17 | 8.11913 | 98.39108 | 2010 ft | 195 kts | 266° |
| 2026-04-21 18:17 | 8.11980 | 98.37771 | 1981 ft | 191 kts | 291° |
| 2026-04-21 18:17 | 8.12787 | 98.36742 | 1998 ft | 191 kts | 330° |
| 2026-04-21 18:17 | 8.14075 | 98.36450 | 2008 ft | 194 kts | 8° |
| 2026-04-21 18:18 | 8.15263 | 98.37025 | 1998 ft | 192 kts | 47° |
| 2026-04-21 18:18 | 8.15834 | 98.38210 | 1986 ft | 189 kts | 82° |
| 2026-04-21 18:18 | 8.15967 | 98.39520 | 2009 ft | 189 kts | 83° |
| 2026-04-21 18:18 | 8.16100 | 98.40850 | 2007 ft | 192 kts | 84° |
| 2026-04-21 18:19 | 8.16227 | 98.42203 | 2009 ft | 195 kts | 84° |
| 2026-04-21 18:19 | 8.16353 | 98.43570 | 2003 ft | 196 kts | 84° |
| 2026-04-21 18:19 | 8.16475 | 98.44935 | 1998 ft | 195 kts | 84° |
| 2026-04-21 18:19 | 8.16586 | 98.46294 | 1991 ft | 192 kts | 90° |
| 2026-04-21 18:20 | 8.16138 | 98.47479 | 1981 ft | 182 kts | 140° |
| 2026-04-21 18:20 | 8.14993 | 98.47884 | 2030 ft | 179 kts | 183° |
| 2026-04-21 18:20 | 8.13768 | 98.47570 | 2021 ft | 184 kts | 206° |
| 2026-04-21 18:20 | 8.12807 | 98.46732 | 2000 ft | 185 kts | 239° |
| 2026-04-21 18:21 | 8.12457 | 98.45509 | 2003 ft | 181 kts | 263° |
| 2026-04-21 18:21 | 8.12291 | 98.44244 | 2007 ft | 184 kts | 264° |
| 2026-04-21 18:21 | 8.12179 | 98.42981 | 1983 ft | 174 kts | 266° |
| 2026-04-21 18:21 | 8.12097 | 98.41803 | 1826 ft | 166 kts | 266° |
| 2026-04-21 18:22 | 8.12022 | 98.40704 | 1641 ft | 156 kts | 266° |
| 2026-04-21 18:22 | 8.11946 | 98.39592 | 1420 ft | 157 kts | 266° |
| 2026-04-21 18:22 | 8.11873 | 98.38519 | 1191 ft | 154 kts | 266° |
| 2026-04-21 18:22 | 8.11799 | 98.37447 | 989 ft | 153 kts | 266° |
| 2026-04-21 18:23 | 8.11725 | 98.36369 | 798 ft | 155 kts | 266° |
| 2026-04-21 18:23 | 8.11651 | 98.35284 | 593 ft | 155 kts | 265° |
| 2026-04-21 18:23 | 8.11571 | 98.34200 | 380 ft | 154 kts | 264° |
| 2026-04-21 18:23 | 8.11456 | 98.33126 | 170 ft | 154 kts | 264° |
| 2026-04-21 18:24 | 8.11362 | 98.32114 | 63 ft | 132 kts | 264° |
| 2026-04-21 18:24 | 8.11287 | 98.31322 | 37 ft | 91 kts | 265° |
| 2026-04-21 18:24 | 8.11243 | 98.30840 | 34 ft | 47 kts | 264° |
| 2026-04-21 18:24 | 8.11218 | 98.30594 | 33 ft | 18 kts | 264° |
| 2026-04-21 18:25 | 8.11161 | 98.30520 | 32 ft | 15 kts | 190° |
| 2026-04-21 18:25 | 8.11085 | 98.30503 | 32 ft | 0 kts | 194° |
| 2026-04-21 18:26 | 8.11082 | 98.30502 | 32 ft | 3 kts | 194° |
| 2026-04-21 18:26 | 8.11057 | 98.30496 | 32 ft | 4 kts | 194° |
| 2026-04-21 18:26 | 8.11023 | 98.30487 | 32 ft | 5 kts | 194° |
| 2026-04-21 18:26 | 8.10985 | 98.30477 | 32 ft | 6 kts | 194° |
| 2026-04-21 18:27 | 8.10942 | 98.30466 | 32 ft | 7 kts | 194° |
| 2026-04-21 18:27 | 8.10895 | 98.30454 | 32 ft | 7 kts | 195° |
| 2026-04-21 18:27 | 8.10850 | 98.30442 | 32 ft | 5 kts | 195° |
| 2026-04-21 18:27 | 8.10822 | 98.30434 | 32 ft | 8 kts | 195° |
| 2026-04-21 18:28 | 8.10794 | 98.30454 | 32 ft | 5 kts | 103° |
| 2026-04-21 18:28 | 8.10786 | 98.30487 | 32 ft | 5 kts | 104° |
| 2026-04-21 18:28 | 8.10782 | 98.30503 | 32 ft | 2 kts | 104° |
| 2026-04-21 18:28 | 8.10781 | 98.30508 | 32 ft | 0 kts | 104° |
| 2026-04-21 18:29 | 8.10780 | 98.30511 | 32 ft | 0 kts | 104° |